PWSweather.com
Personal Weather Stations
Station Observations
31648434
Capital (cazadores De Tormentas), San Fernando Del Valle De CatamarcaAR 4700

Capital (cazadores De Tormentas)San Fernando Del Valle De CatamarcaAR 4700

Lat: -28.467778, Lon: -65.795278

Elevation: 1896.33

Station Type: Fine Offset WH1081

http://www.cazatormentasdecatamarca.com/2011/10/datos-del-tiempo-actuales.html

Latest ConditionsUpdated 12:48:01 PM GMT-03:57 Tuesday, Dec 11, 2018
Currently Today's Max Today's Min Today's Average
Temperature 98.6°F37.0°C 98.6°F37.0°C 79.0°F26.1°C 85.8°F29.9°C
Dew Point 72.1°F22.3°C 73.8°F23.2°C 65.5°F18.6°C 69.9°F21.1°C
Winds 7.6 mph S12.2 kmh S 9.8 mph -15.8 kmh - - 2.7 mph 4.3 kmh
Wind Gusts 16.8 mph27.0 kmh 20.6 mph33.2 kmh - -
Humidity 43% 71% 43% 60%
Pressure 29.65 in1004.1 mb 29.67 in1004.7 mb 29.55 in1000.7 mb -
Hour Temp Dew Point Humidity Winds Wind Gusts Pressure Precip Precip Rate Daily Precip Total
12:48 PM 98.6°F37.0°C 72.1°F22.3°C 43% 7.6 mph S12.2 kmh S 16.8 mph27.0 kmh 29.65 in1004.1 mb 0.00 in0.0 mm 0.00 in0.0 mm 0.00 in0.0 mm
12:46 PM 98.6°F37.0°C 72.1°F22.3°C 43% 9.2 mph W14.8 kmh W 16.8 mph27.0 kmh 29.65 in1004.1 mb 0.00 in0.0 mm 0.00 in0.0 mm 0.00 in0.0 mm
12:45 PM 98.6°F37.0°C 72.1°F22.3°C 43% 7.6 mph SW12.2 kmh SW 13.0 mph20.9 kmh 29.65 in1004.1 mb 0.00 in0.0 mm 0.00 in0.0 mm 0.00 in0.0 mm
12:44 PM 98.6°F37.0°C 72.9°F22.7°C 44% 7.6 mph S12.2 kmh S 13.0 mph20.9 kmh 29.65 in1004.1 mb 0.00 in0.0 mm 0.00 in0.0 mm 0.00 in0.0 mm
12:43 PM 98.6°F37.0°C 72.9°F22.7°C 44% 5.4 mph SSE8.7 kmh SSE 12.1 mph19.5 kmh 29.65 in1004.1 mb 0.00 in0.0 mm 0.00 in0.0 mm 0.00 in0.0 mm
12:42 PM 98.6°F37.0°C 72.1°F22.3°C 43% 7.6 mph SW12.2 kmh SW 12.1 mph19.5 kmh 29.65 in1004.1 mb 0.00 in0.0 mm 0.00 in0.0 mm 0.00 in0.0 mm
12:40 PM 98.6°F37.0°C 72.1°F22.3°C 43% 6.9 mph S11.1 kmh S 13.6 mph21.9 kmh 29.65 in1004.1 mb 0.00 in0.0 mm 0.00 in0.0 mm 0.00 in0.0 mm
12:39 PM 98.4°F36.9°C 72.1°F22.3°C 43% 9.8 mph SW15.8 kmh SW 13.6 mph21.9 kmh 29.65 in1004.1 mb 0.00 in0.0 mm 0.00 in0.0 mm 0.00 in0.0 mm
12:38 PM 98.4°F36.9°C 72.1°F22.3°C 43% 6.0 mph S9.7 kmh S 13.0 mph20.9 kmh 29.65 in1004.1 mb 0.00 in0.0 mm 0.00 in0.0 mm 0.00 in0.0 mm
12:37 PM 98.2°F36.8°C 72.0°F22.2°C 43% 7.6 mph S12.2 kmh S 13.0 mph20.9 kmh 29.65 in1004.1 mb 0.00 in0.0 mm 0.00 in0.0 mm 0.00 in0.0 mm
12:36 PM 98.4°F36.9°C 72.1°F22.3°C 43% 7.6 mph S12.2 kmh S 15.9 mph25.6 kmh 29.65 in1004.1 mb 0.00 in0.0 mm 0.00 in0.0 mm 0.00 in0.0 mm
12:35 PM 98.2°F36.8°C 72.0°F22.2°C 43% 6.9 mph S11.1 kmh S 15.9 mph25.6 kmh 29.65 in1004.1 mb 0.00 in0.0 mm 0.00 in0.0 mm 0.00 in0.0 mm
12:33 PM 98.2°F36.8°C 72.0°F22.2°C 43% 6.9 mph S11.1 kmh S 13.6 mph21.9 kmh 29.65 in1004.1 mb 0.00 in0.0 mm 0.00 in0.0 mm 0.00 in0.0 mm
12:32 PM 98.1°F36.7°C 72.5°F22.5°C 44% 9.2 mph SW14.8 kmh SW 14.5 mph23.3 kmh 29.65 in1004.1 mb 0.00 in0.0 mm 0.00 in0.0 mm 0.00 in0.0 mm
12:31 PM 98.1°F36.7°C 72.5°F22.5°C 44% 7.6 mph S12.2 kmh S 14.5 mph23.3 kmh 29.65 in1004.1 mb 0.00 in0.0 mm 0.00 in0.0 mm 0.00 in0.0 mm
12:30 PM 98.1°F36.7°C 72.5°F22.5°C 44% 4.5 mph SE7.2 kmh SE 9.2 mph14.8 kmh 29.65 in1004.1 mb 0.00 in0.0 mm 0.00 in0.0 mm 0.00 in0.0 mm
12:29 PM 97.9°F36.6°C 72.3°F22.4°C 44% 3.8 mph S6.1 kmh S 13.0 mph20.9 kmh 29.65 in1004.1 mb 0.00 in0.0 mm 0.00 in0.0 mm 0.00 in0.0 mm
12:28 PM 97.9°F36.6°C 72.3°F22.4°C 44% 6.0 mph SE9.7 kmh SE 10.7 mph17.2 kmh 29.65 in1004.1 mb 0.00 in0.0 mm 0.00 in0.0 mm 0.00 in0.0 mm
12:26 PM 97.7°F36.5°C 72.1°F22.3°C 44% 5.4 mph S8.7 kmh S 9.8 mph15.8 kmh 29.65 in1004.1 mb 0.00 in0.0 mm 0.00 in0.0 mm 0.00 in0.0 mm
12:25 PM 97.7°F36.5°C 72.1°F22.3°C 44% 7.6 mph S12.2 kmh S 12.1 mph19.5 kmh 29.65 in1004.1 mb 0.00 in0.0 mm 0.00 in0.0 mm 0.00 in0.0 mm
12:24 PM 97.7°F36.5°C 72.7°F22.6°C 45% 6.0 mph SW9.7 kmh SW 11.4 mph18.3 kmh 29.65 in1004.1 mb 0.00 in0.0 mm 0.00 in0.0 mm 0.00 in0.0 mm
12:23 PM 97.5°F36.4°C 72.7°F22.6°C 45% 5.4 mph S8.7 kmh S 9.8 mph15.8 kmh 29.65 in1004.1 mb 0.00 in0.0 mm 0.00 in0.0 mm 0.00 in0.0 mm
12:22 PM 97.5°F36.4°C 72.7°F22.6°C 45% 3.8 mph SE6.1 kmh SE 12.1 mph19.5 kmh 29.65 in1004.1 mb 0.00 in0.0 mm 0.00 in0.0 mm 0.00 in0.0 mm
12:21 PM 97.3°F36.3°C 72.5°F22.5°C 45% 5.4 mph SE8.7 kmh SE 11.4 mph18.3 kmh 29.65 in1004.1 mb 0.00 in0.0 mm 0.00 in0.0 mm 0.00 in0.0 mm
12:19 PM 97.3°F36.3°C 73.0°F22.8°C 46% 6.0 mph S9.7 kmh S 11.4 mph18.3 kmh 29.65 in1004.1 mb 0.00 in0.0 mm 0.00 in0.0 mm 0.00 in0.0 mm
12:18 PM 97.3°F36.3°C 73.0°F22.8°C 46% 7.6 mph E12.2 kmh E 11.4 mph18.3 kmh 29.65 in1004.1 mb 0.00 in0.0 mm 0.00 in0.0 mm 0.00 in0.0 mm
12:17 PM 97.2°F36.2°C 72.9°F22.7°C 46% 8.3 mph SSE13.4 kmh SSE 11.4 mph18.3 kmh 29.65 in1004.1 mb 0.00 in0.0 mm 0.00 in0.0 mm 0.00 in0.0 mm
12:16 PM 97.0°F36.1°C 72.7°F22.6°C 46% 6.9 mph S11.1 kmh S 13.6 mph21.9 kmh 29.66 in1004.4 mb 0.00 in0.0 mm 0.00 in0.0 mm 0.00 in0.0 mm
12:15 PM 97.2°F36.2°C 72.9°F22.7°C 46% 6.0 mph SE9.7 kmh SE 15.9 mph25.6 kmh 29.65 in1004.1 mb 0.00 in0.0 mm 0.00 in0.0 mm 0.00 in0.0 mm
12:13 PM 97.0°F36.1°C 73.4°F23.0°C 47% 9.8 mph S15.8 kmh S 15.9 mph25.6 kmh 29.65 in1004.1 mb 0.00 in0.0 mm 0.00 in0.0 mm 0.00 in0.0 mm
12:12 PM 97.0°F36.1°C 73.4°F23.0°C 47% 3.1 mph S5.0 kmh S 6.0 mph9.7 kmh 29.65 in1004.1 mb 0.00 in0.0 mm 0.00 in0.0 mm 0.00 in0.0 mm
12:11 PM 97.0°F36.1°C 72.7°F22.6°C 46% 3.8 mph SW6.1 kmh SW 11.4 mph18.3 kmh 29.65 in1004.1 mb 0.00 in0.0 mm 0.00 in0.0 mm 0.00 in0.0 mm
12:10 PM 96.8°F36.0°C 73.2°F22.9°C 47% 5.4 mph SW8.7 kmh SW 11.4 mph18.3 kmh 29.66 in1004.4 mb 0.00 in0.0 mm 0.00 in0.0 mm 0.00 in0.0 mm
12:09 PM 96.8°F36.0°C 73.2°F22.9°C 47% 3.1 mph E5.0 kmh E 9.2 mph14.8 kmh 29.66 in1004.4 mb 0.00 in0.0 mm 0.00 in0.0 mm 0.00 in0.0 mm
12:08 PM 96.8°F36.0°C 73.2°F22.9°C 47% 3.8 mph NW6.1 kmh NW 9.8 mph15.8 kmh 29.65 in1004.1 mb 0.00 in0.0 mm 0.00 in0.0 mm 0.00 in0.0 mm
12:06 PM 96.6°F35.9°C 73.0°F22.8°C 47% 4.5 mph S7.2 kmh S 13.6 mph21.9 kmh 29.66 in1004.4 mb 0.00 in0.0 mm 0.00 in0.0 mm 0.00 in0.0 mm
12:05 PM 96.6°F35.9°C 73.0°F22.8°C 47% 6.0 mph WNW9.7 kmh WNW 11.4 mph18.3 kmh 29.65 in1004.1 mb 0.00 in0.0 mm 0.00 in0.0 mm 0.00 in0.0 mm
12:04 PM 96.6°F35.9°C 73.0°F22.8°C 47% 4.5 mph E7.2 kmh E 11.4 mph18.3 kmh 29.66 in1004.4 mb 0.00 in0.0 mm 0.00 in0.0 mm 0.00 in0.0 mm
12:03 PM 96.6°F35.9°C 73.0°F22.8°C 47% 5.4 mph WNW8.7 kmh WNW 10.7 mph17.2 kmh 29.66 in1004.4 mb 0.00 in0.0 mm 0.00 in0.0 mm 0.00 in0.0 mm
12:02 PM 96.6°F35.9°C 73.8°F23.2°C 48% 3.8 mph SW6.1 kmh SW 8.3 mph13.4 kmh 29.66 in1004.4 mb 0.00 in0.0 mm 0.00 in0.0 mm 0.00 in0.0 mm
12:01 PM 96.4°F35.8°C 73.6°F23.1°C 48% 5.4 mph SE8.7 kmh SE 9.2 mph14.8 kmh 29.65 in1004.1 mb 0.00 in0.0 mm 0.00 in0.0 mm 0.00 in0.0 mm
11:59 AM 96.4°F35.8°C 73.6°F23.1°C 48% 4.5 mph SE7.2 kmh SE 12.1 mph19.5 kmh 29.66 in1004.4 mb 0.00 in0.0 mm 0.00 in0.0 mm 0.00 in0.0 mm
11:58 AM 96.4°F35.8°C 73.6°F23.1°C 48% 9.2 mph S14.8 kmh S 12.1 mph19.5 kmh 29.66 in1004.4 mb 0.00 in0.0 mm 0.00 in0.0 mm 0.00 in0.0 mm
11:57 AM 96.3°F35.7°C 73.4°F23.0°C 48% 5.4 mph NNE8.7 kmh NNE 11.4 mph18.3 kmh 29.66 in1004.4 mb 0.00 in0.0 mm 0.00 in0.0 mm 0.00 in0.0 mm
11:56 AM 96.3°F35.7°C 73.4°F23.0°C 48% 7.6 mph S12.2 kmh S 15.2 mph24.5 kmh 29.66 in1004.4 mb 0.00 in0.0 mm 0.00 in0.0 mm 0.00 in0.0 mm
11:55 AM 96.3°F35.7°C 73.4°F23.0°C 48% 6.0 mph S9.7 kmh S 11.4 mph18.3 kmh 29.66 in1004.4 mb 0.00 in0.0 mm 0.00 in0.0 mm 0.00 in0.0 mm
11:53 AM 96.1°F35.6°C 73.2°F22.9°C 48% 3.8 mph S6.1 kmh S 11.4 mph18.3 kmh 29.66 in1004.4 mb 0.00 in0.0 mm 0.00 in0.0 mm 0.00 in0.0 mm
11:52 AM 96.1°F35.6°C 73.2°F22.9°C 48% 5.4 mph S8.7 kmh S 10.7 mph17.2 kmh 29.66 in1004.4 mb 0.00 in0.0 mm 0.00 in0.0 mm 0.00 in0.0 mm
11:51 AM 95.9°F35.5°C 73.0°F22.8°C 48% 6.0 mph S9.7 kmh S 10.7 mph17.2 kmh 29.66 in1004.4 mb 0.00 in0.0 mm 0.00 in0.0 mm 0.00 in0.0 mm
11:50 AM 95.9°F35.5°C 73.0°F22.8°C 48% 3.1 mph SW5.0 kmh SW 15.2 mph24.5 kmh 29.66 in1004.4 mb 0.00 in0.0 mm 0.00 in0.0 mm 0.00 in0.0 mm
11:49 AM 95.9°F35.5°C 73.6°F23.1°C 49% 7.6 mph S12.2 kmh S 15.2 mph24.5 kmh 29.66 in1004.4 mb 0.00 in0.0 mm 0.00 in0.0 mm 0.00 in0.0 mm
11:48 AM 95.9°F35.5°C 73.6°F23.1°C 49% 6.0 mph S9.7 kmh S 10.7 mph17.2 kmh 29.66 in1004.4 mb 0.00 in0.0 mm 0.00 in0.0 mm 0.00 in0.0 mm
11:46 AM 95.7°F35.4°C 73.6°F23.1°C 49% 6.9 mph SE11.1 kmh SE 11.4 mph18.3 kmh 29.66 in1004.4 mb 0.00 in0.0 mm 0.00 in0.0 mm 0.00 in0.0 mm
11:45 AM 95.7°F35.4°C 72.9°F22.7°C 48% 6.0 mph SE9.7 kmh SE 14.5 mph23.3 kmh 29.66 in1004.4 mb 0.00 in0.0 mm 0.00 in0.0 mm 0.00 in0.0 mm
11:44 AM 95.5°F35.3°C 72.7°F22.6°C 48% 6.9 mph SE11.1 kmh SE 14.5 mph23.3 kmh 29.66 in1004.4 mb 0.00 in0.0 mm 0.00 in0.0 mm 0.00 in0.0 mm
11:43 AM 95.5°F35.3°C 72.7°F22.6°C 48% 9.2 mph S14.8 kmh S 13.6 mph21.9 kmh 29.66 in1004.4 mb 0.00 in0.0 mm 0.00 in0.0 mm 0.00 in0.0 mm
11:42 AM 95.5°F35.3°C 72.7°F22.6°C 48% 9.8 mph S15.8 kmh S 13.6 mph21.9 kmh 29.66 in1004.4 mb 0.00 in0.0 mm 0.00 in0.0 mm 0.00 in0.0 mm
11:41 AM 95.5°F35.3°C 73.4°F23.0°C 49% 6.0 mph SSE9.7 kmh SSE 12.1 mph19.5 kmh 29.66 in1004.4 mb 0.00 in0.0 mm 0.00 in0.0 mm 0.00 in0.0 mm
11:39 AM 95.4°F35.2°C 73.2°F22.9°C 49% 6.9 mph SW11.1 kmh SW 12.1 mph19.5 kmh 29.65 in1004.1 mb 0.00 in0.0 mm 0.00 in0.0 mm 0.00 in0.0 mm
11:38 AM 95.4°F35.2°C 73.2°F22.9°C 49% 4.5 mph S7.2 kmh S 11.4 mph18.3 kmh 29.66 in1004.4 mb 0.00 in0.0 mm 0.00 in0.0 mm 0.00 in0.0 mm
11:37 AM 95.2°F35.1°C 73.0°F22.8°C 49% 6.0 mph SE9.7 kmh SE 10.7 mph17.2 kmh 29.65 in1004.1 mb 0.00 in0.0 mm 0.00 in0.0 mm 0.00 in0.0 mm
11:36 AM 95.2°F35.1°C 73.0°F22.8°C 49% 6.9 mph SSE11.1 kmh SSE 12.1 mph19.5 kmh 29.66 in1004.4 mb 0.00 in0.0 mm 0.00 in0.0 mm 0.00 in0.0 mm
11:35 AM 95.2°F35.1°C 73.0°F22.8°C 49% 5.4 mph SE8.7 kmh SE 12.1 mph19.5 kmh 29.65 in1004.1 mb 0.00 in0.0 mm 0.00 in0.0 mm 0.00 in0.0 mm
11:34 AM 95.2°F35.1°C 72.3°F22.4°C 48% 5.4 mph S8.7 kmh S 10.7 mph17.2 kmh 29.66 in1004.4 mb 0.00 in0.0 mm 0.00 in0.0 mm 0.00 in0.0 mm
11:32 AM 95.2°F35.1°C 73.0°F22.8°C 49% 3.8 mph W6.1 kmh W 10.7 mph17.2 kmh 29.66 in1004.4 mb 0.00 in0.0 mm 0.00 in0.0 mm 0.00 in0.0 mm
11:31 AM 95.0°F35.0°C 72.9°F22.7°C 49% 6.0 mph SW9.7 kmh SW 13.6 mph21.9 kmh 29.66 in1004.4 mb 0.00 in0.0 mm 0.00 in0.0 mm 0.00 in0.0 mm
11:30 AM 95.0°F35.0°C 72.9°F22.7°C 49% 5.4 mph SW8.7 kmh SW 9.8 mph15.8 kmh 29.66 in1004.4 mb 0.00 in0.0 mm 0.00 in0.0 mm 0.00 in0.0 mm
11:29 AM 94.8°F34.9°C 73.2°F22.9°C 50% 2.2 mph WSW3.5 kmh WSW 6.9 mph11.1 kmh 29.66 in1004.4 mb 0.00 in0.0 mm 0.00 in0.0 mm 0.00 in0.0 mm
11:28 AM 94.8°F34.9°C 73.2°F22.9°C 50% 1.6 mph SE2.6 kmh SE 10.7 mph17.2 kmh 29.66 in1004.4 mb 0.00 in0.0 mm 0.00 in0.0 mm 0.00 in0.0 mm
11:26 AM 94.8°F34.9°C 73.2°F22.9°C 50% 6.0 mph SW9.7 kmh SW 10.7 mph17.2 kmh 29.66 in1004.4 mb 0.00 in0.0 mm 0.00 in0.0 mm 0.00 in0.0 mm
11:25 AM 94.6°F34.8°C 72.5°F22.5°C 49% 5.4 mph SE8.7 kmh SE 10.7 mph17.2 kmh 29.66 in1004.4 mb 0.00 in0.0 mm 0.00 in0.0 mm 0.00 in0.0 mm
11:24 AM 94.6°F34.8°C 72.5°F22.5°C 49% 6.0 mph SW9.7 kmh SW 11.4 mph18.3 kmh 29.66 in1004.4 mb 0.00 in0.0 mm 0.00 in0.0 mm 0.00 in0.0 mm
11:23 AM 94.6°F34.8°C 72.5°F22.5°C 49% 7.6 mph SE12.2 kmh SE 14.5 mph23.3 kmh 29.66 in1004.4 mb 0.00 in0.0 mm 0.00 in0.0 mm 0.00 in0.0 mm
11:22 AM 94.3°F34.6°C 72.1°F22.3°C 49% 8.3 mph S13.4 kmh S 13.0 mph20.9 kmh 29.66 in1004.4 mb 0.00 in0.0 mm 0.00 in0.0 mm 0.00 in0.0 mm
11:21 AM 94.3°F34.6°C 72.1°F22.3°C 49% 6.0 mph S9.7 kmh S 9.8 mph15.8 kmh 29.67 in1004.7 mb 0.00 in0.0 mm 0.00 in0.0 mm 0.00 in0.0 mm
11:19 AM 94.3°F34.6°C 72.1°F22.3°C 49% 4.5 mph 7.2 kmh 12.1 mph19.5 kmh 29.66 in1004.4 mb 0.00 in0.0 mm 0.00 in0.0 mm 0.00 in0.0 mm
11:18 AM 94.1°F34.5°C 72.0°F22.2°C 49% 3.8 mph SE6.1 kmh SE 12.1 mph19.5 kmh 29.66 in1004.4 mb 0.00 in0.0 mm 0.00 in0.0 mm 0.00 in0.0 mm
11:17 AM 94.1°F34.5°C 72.0°F22.2°C 49% 3.1 mph SE5.0 kmh SE 8.3 mph13.4 kmh 29.67 in1004.7 mb 0.00 in0.0 mm 0.00 in0.0 mm 0.00 in0.0 mm
11:16 AM 93.9°F34.4°C 71.8°F22.1°C 49% 4.5 mph SE7.2 kmh SE 13.0 mph20.9 kmh 29.66 in1004.4 mb 0.00 in0.0 mm 0.00 in0.0 mm 0.00 in0.0 mm
11:15 AM 93.9°F34.4°C 71.2°F21.8°C 48% 7.6 mph SW12.2 kmh SW 12.1 mph19.5 kmh 29.66 in1004.4 mb 0.00 in0.0 mm 0.00 in0.0 mm 0.00 in0.0 mm
11:14 AM 93.7°F34.3°C 71.6°F22.0°C 49% 7.6 mph S12.2 kmh S 12.1 mph19.5 kmh 29.66 in1004.4 mb 0.00 in0.0 mm 0.00 in0.0 mm 0.00 in0.0 mm
11:12 AM 93.6°F34.2°C 71.6°F22.0°C 49% 5.4 mph SE8.7 kmh SE 10.7 mph17.2 kmh 29.66 in1004.4 mb 0.00 in0.0 mm 0.00 in0.0 mm 0.00 in0.0 mm
11:11 AM 93.6°F34.2°C 72.1°F22.3°C 50% 5.4 mph SW8.7 kmh SW 9.8 mph15.8 kmh 29.66 in1004.4 mb 0.00 in0.0 mm 0.00 in0.0 mm 0.00 in0.0 mm
11:10 AM 93.6°F34.2°C 72.1°F22.3°C 50% 3.8 mph SW6.1 kmh SW 7.6 mph12.2 kmh 29.66 in1004.4 mb 0.00 in0.0 mm 0.00 in0.0 mm 0.00 in0.0 mm
11:09 AM 93.4°F34.1°C 72.0°F22.2°C 50% 5.4 mph NE8.7 kmh NE 7.6 mph12.2 kmh 29.66 in1004.4 mb 0.00 in0.0 mm 0.00 in0.0 mm 0.00 in0.0 mm
11:08 AM 93.2°F34.0°C 72.3°F22.4°C 51% 1.6 mph SW2.6 kmh SW 6.0 mph9.7 kmh 29.66 in1004.4 mb 0.00 in0.0 mm 0.00 in0.0 mm 0.00 in0.0 mm
11:07 AM 93.2°F34.0°C 72.3°F22.4°C 51% 1.6 mph S2.6 kmh S 5.4 mph8.7 kmh 29.66 in1004.4 mb 0.00 in0.0 mm 0.00 in0.0 mm 0.00 in0.0 mm
11:05 AM 93.2°F34.0°C 72.3°F22.4°C 51% 3.1 mph S5.0 kmh S 5.4 mph8.7 kmh 29.66 in1004.4 mb 0.00 in0.0 mm 0.00 in0.0 mm 0.00 in0.0 mm
11:04 AM 93.0°F33.9°C 72.1°F22.3°C 51% 3.8 mph SW6.1 kmh SW 6.9 mph11.1 kmh 29.66 in1004.4 mb 0.00 in0.0 mm 0.00 in0.0 mm 0.00 in0.0 mm
11:03 AM 93.0°F33.9°C 72.1°F22.3°C 51% 3.1 mph S5.0 kmh S 6.9 mph11.1 kmh 29.66 in1004.4 mb 0.00 in0.0 mm 0.00 in0.0 mm 0.00 in0.0 mm
11:02 AM 92.8°F33.8°C 72.0°F22.2°C 51% 2.2 mph S3.5 kmh S 6.9 mph11.1 kmh 29.66 in1004.4 mb 0.00 in0.0 mm 0.00 in0.0 mm 0.00 in0.0 mm
11:01 AM 92.8°F33.8°C 72.7°F22.6°C 52% 3.8 mph W6.1 kmh W 6.9 mph11.1 kmh 29.66 in1004.4 mb 0.00 in0.0 mm 0.00 in0.0 mm 0.00 in0.0 mm
10:59 AM 92.7°F33.7°C 72.5°F22.5°C 52% 3.8 mph S6.1 kmh S 6.9 mph11.1 kmh 29.66 in1004.4 mb 0.00 in0.0 mm 0.00 in0.0 mm 0.00 in0.0 mm
10:58 AM 92.7°F33.7°C 72.5°F22.5°C 52% 1.6 mph S2.6 kmh S 3.1 mph5.0 kmh 29.66 in1004.4 mb 0.00 in0.0 mm 0.00 in0.0 mm 0.00 in0.0 mm
10:57 AM 92.5°F33.6°C 72.3°F22.4°C 52% 0.7 mph SW1.1 kmh SW 4.5 mph7.2 kmh 29.66 in1004.4 mb 0.00 in0.0 mm 0.00 in0.0 mm 0.00 in0.0 mm
10:56 AM 92.3°F33.5°C 72.1°F22.3°C 52% 1.6 mph NE2.6 kmh NE 5.4 mph8.7 kmh 29.66 in1004.4 mb 0.00 in0.0 mm 0.00 in0.0 mm 0.00 in0.0 mm
10:55 AM 92.1°F33.4°C 72.0°F22.2°C 52% 3.1 mph S5.0 kmh S 6.9 mph11.1 kmh 29.66 in1004.4 mb 0.00 in0.0 mm 0.00 in0.0 mm 0.00 in0.0 mm
10:54 AM 92.1°F33.4°C 72.0°F22.2°C 52% 4.5 mph S7.2 kmh S 7.6 mph12.2 kmh 29.66 in1004.4 mb 0.00 in0.0 mm 0.00 in0.0 mm 0.00 in0.0 mm
10:52 AM 91.9°F33.3°C 71.8°F22.1°C 52% 2.2 mph SE3.5 kmh SE 5.4 mph8.7 kmh 29.66 in1004.4 mb 0.00 in0.0 mm 0.00 in0.0 mm 0.00 in0.0 mm
10:51 AM 91.9°F33.3°C 72.3°F22.4°C 53% 3.1 mph SE5.0 kmh SE 3.8 mph6.1 kmh 29.66 in1004.4 mb 0.00 in0.0 mm 0.00 in0.0 mm 0.00 in0.0 mm
10:50 AM 91.8°F33.2°C 72.1°F22.3°C 53% 1.6 mph SE2.6 kmh SE 4.5 mph7.2 kmh 29.66 in1004.4 mb 0.00 in0.0 mm 0.00 in0.0 mm 0.00 in0.0 mm
10:49 AM 91.8°F33.2°C 72.1°F22.3°C 53% 2.2 mph SE3.5 kmh SE 6.0 mph9.7 kmh 29.66 in1004.4 mb 0.00 in0.0 mm 0.00 in0.0 mm 0.00 in0.0 mm
10:48 AM 91.6°F33.1°C 72.5°F22.5°C 54% 3.1 mph SE5.0 kmh SE 5.4 mph8.7 kmh 29.66 in1004.4 mb 0.00 in0.0 mm 0.00 in0.0 mm 0.00 in0.0 mm
10:47 AM 91.6°F33.1°C 72.0°F22.2°C 53% 2.2 mph SSE3.5 kmh SSE 4.5 mph7.2 kmh 29.66 in1004.4 mb 0.00 in0.0 mm 0.00 in0.0 mm 0.00 in0.0 mm
10:45 AM 91.4°F33.0°C 71.8°F22.1°C 53% 1.6 mph ENE2.6 kmh ENE 6.0 mph9.7 kmh 29.66 in1004.4 mb 0.00 in0.0 mm 0.00 in0.0 mm 0.00 in0.0 mm
10:44 AM 91.4°F33.0°C 72.3°F22.4°C 54% 2.2 mph SE3.5 kmh SE 6.0 mph9.7 kmh 29.66 in1004.4 mb 0.00 in0.0 mm 0.00 in0.0 mm 0.00 in0.0 mm
10:43 AM 91.0°F32.8°C 72.1°F22.3°C 54% 1.6 mph SE2.6 kmh SE 3.8 mph6.1 kmh 29.66 in1004.4 mb 0.00 in0.0 mm 0.00 in0.0 mm 0.00 in0.0 mm
10:42 AM 91.2°F32.9°C 72.3°F22.4°C 54% 0.7 mph S1.1 kmh S 3.1 mph5.0 kmh 29.66 in1004.4 mb 0.00 in0.0 mm 0.00 in0.0 mm 0.00 in0.0 mm
10:41 AM 91.2°F32.9°C 72.3°F22.4°C 54% 1.6 mph SE2.6 kmh SE 3.8 mph6.1 kmh 29.66 in1004.4 mb 0.00 in0.0 mm 0.00 in0.0 mm 0.00 in0.0 mm
10:39 AM 91.0°F32.8°C 72.1°F22.3°C 54% 1.6 mph SE2.6 kmh SE 4.5 mph7.2 kmh 29.66 in1004.4 mb 0.00 in0.0 mm 0.00 in0.0 mm 0.00 in0.0 mm
10:38 AM 91.0°F32.8°C 72.1°F22.3°C 54% 2.2 mph E3.5 kmh E 4.5 mph7.2 kmh 29.66 in1004.4 mb 0.00 in0.0 mm 0.00 in0.0 mm 0.00 in0.0 mm
10:37 AM 90.9°F32.7°C 72.0°F22.2°C 54% 1.6 mph WNW2.6 kmh WNW 3.1 mph5.0 kmh 29.66 in1004.4 mb 0.00 in0.0 mm 0.00 in0.0 mm 0.00 in0.0 mm
10:36 AM 90.9°F32.7°C 72.0°F22.2°C 54% 1.6 mph SW2.6 kmh SW 3.1 mph5.0 kmh 29.66 in1004.4 mb 0.00 in0.0 mm 0.00 in0.0 mm 0.00 in0.0 mm
10:35 AM 90.9°F32.7°C 72.0°F22.2°C 54% 2.2 mph NW3.5 kmh NW 5.4 mph8.7 kmh 29.66 in1004.4 mb 0.00 in0.0 mm 0.00 in0.0 mm 0.00 in0.0 mm
10:34 AM 90.9°F32.7°C 72.5°F22.5°C 55% 3.1 mph SW5.0 kmh SW 5.4 mph8.7 kmh 29.66 in1004.4 mb 0.00 in0.0 mm 0.00 in0.0 mm 0.00 in0.0 mm
10:32 AM 90.7°F32.6°C 72.3°F22.4°C 55% 1.6 mph W2.6 kmh W 5.4 mph8.7 kmh 29.66 in1004.4 mb 0.00 in0.0 mm 0.00 in0.0 mm 0.00 in0.0 mm
10:31 AM 90.7°F32.6°C 72.3°F22.4°C 55% 1.6 mph SW2.6 kmh SW 5.4 mph8.7 kmh 29.66 in1004.4 mb 0.00 in0.0 mm 0.00 in0.0 mm 0.00 in0.0 mm
10:30 AM 90.7°F32.6°C 72.3°F22.4°C 55% 1.6 mph SE2.6 kmh SE 4.5 mph7.2 kmh 29.66 in1004.4 mb 0.00 in0.0 mm 0.00 in0.0 mm 0.00 in0.0 mm
10:29 AM 90.5°F32.5°C 72.1°F22.3°C 55% 0.7 mph SW1.1 kmh SW 5.4 mph8.7 kmh 29.66 in1004.4 mb 0.00 in0.0 mm 0.00 in0.0 mm 0.00 in0.0 mm
10:28 AM 90.5°F32.5°C 72.1°F22.3°C 55% 0.7 mph SW1.1 kmh SW 5.4 mph8.7 kmh 29.66 in1004.4 mb 0.00 in0.0 mm 0.00 in0.0 mm 0.00 in0.0 mm
10:27 AM 90.3°F32.4°C 72.0°F22.2°C 55% 0.7 mph SW1.1 kmh SW 3.8 mph6.1 kmh 29.66 in1004.4 mb 0.00 in0.0 mm 0.00 in0.0 mm 0.00 in0.0 mm
10:25 AM 90.3°F32.4°C 72.0°F22.2°C 55% 2.2 mph SE3.5 kmh SE 3.8 mph6.1 kmh 29.66 in1004.4 mb 0.00 in0.0 mm 0.00 in0.0 mm 0.00 in0.0 mm
10:24 AM 90.1°F32.3°C 71.8°F22.1°C 55% 1.6 mph ESE2.6 kmh ESE 3.8 mph6.1 kmh 29.66 in1004.4 mb 0.00 in0.0 mm 0.00 in0.0 mm 0.00 in0.0 mm
10:23 AM 90.1°F32.3°C 71.8°F22.1°C 55% 1.6 mph SE2.6 kmh SE 3.8 mph6.1 kmh 29.66 in1004.4 mb 0.00 in0.0 mm 0.00 in0.0 mm 0.00 in0.0 mm
10:22 AM 90.0°F32.2°C 71.6°F22.0°C 55% 2.2 mph SW3.5 kmh SW 5.4 mph8.7 kmh 29.66 in1004.4 mb 0.00 in0.0 mm 0.00 in0.0 mm 0.00 in0.0 mm
10:21 AM 90.0°F32.2°C 72.1°F22.3°C 56% 3.8 mph S6.1 kmh S 6.0 mph9.7 kmh 29.66 in1004.4 mb 0.00 in0.0 mm 0.00 in0.0 mm 0.00 in0.0 mm
10:20 AM 90.0°F32.2°C 72.1°F22.3°C 56% Calm Calm 3.8 mph6.1 kmh 29.66 in1004.4 mb 0.00 in0.0 mm 0.00 in0.0 mm 0.00 in0.0 mm
10:18 AM 90.0°F32.2°C 71.6°F22.0°C 55% 2.2 mph SW3.5 kmh SW 3.8 mph6.1 kmh 29.66 in1004.4 mb 0.00 in0.0 mm 0.00 in0.0 mm 0.00 in0.0 mm
10:17 AM 89.8°F32.1°C 71.4°F21.9°C 55% 0.7 mph SW1.1 kmh SW 2.2 mph3.5 kmh 29.66 in1004.4 mb 0.00 in0.0 mm 0.00 in0.0 mm 0.00 in0.0 mm
10:16 AM 89.8°F32.1°C 72.0°F22.2°C 56% 0.7 mph SW1.1 kmh SW 3.8 mph6.1 kmh 29.66 in1004.4 mb 0.00 in0.0 mm 0.00 in0.0 mm 0.00 in0.0 mm
10:15 AM 89.8°F32.1°C 72.0°F22.2°C 56% 1.6 mph SW2.6 kmh SW 4.5 mph7.2 kmh 29.66 in1004.4 mb 0.00 in0.0 mm 0.00 in0.0 mm 0.00 in0.0 mm
10:14 AM 89.6°F32.0°C 71.8°F22.1°C 56% 1.6 mph SW2.6 kmh SW 4.5 mph7.2 kmh 29.66 in1004.4 mb 0.00 in0.0 mm 0.00 in0.0 mm 0.00 in0.0 mm
10:12 AM 89.4°F31.9°C 72.1°F22.3°C 57% 3.1 mph S5.0 kmh S 5.4 mph8.7 kmh 29.66 in1004.4 mb 0.00 in0.0 mm 0.00 in0.0 mm 0.00 in0.0 mm
10:11 AM 89.4°F31.9°C 72.7°F22.6°C 58% 2.2 mph SE3.5 kmh SE 5.4 mph8.7 kmh 29.66 in1004.4 mb 0.00 in0.0 mm 0.00 in0.0 mm 0.00 in0.0 mm
10:10 AM 89.4°F31.9°C 72.7°F22.6°C 58% Calm Calm 1.6 mph2.6 kmh 29.66 in1004.4 mb 0.00 in0.0 mm 0.00 in0.0 mm 0.00 in0.0 mm
10:09 AM 89.2°F31.8°C 72.0°F22.2°C 57% 0.7 mph E1.1 kmh E 2.2 mph3.5 kmh 29.66 in1004.4 mb 0.00 in0.0 mm 0.00 in0.0 mm 0.00 in0.0 mm
10:08 AM 89.2°F31.8°C 72.0°F22.2°C 57% 0.7 mph E1.1 kmh E 2.2 mph3.5 kmh 29.66 in1004.4 mb 0.00 in0.0 mm 0.00 in0.0 mm 0.00 in0.0 mm
10:07 AM 89.2°F31.8°C 72.5°F22.5°C 58% 0.7 mph SW1.1 kmh SW 2.2 mph3.5 kmh 29.65 in1004.1 mb 0.00 in0.0 mm 0.00 in0.0 mm 0.00 in0.0 mm
10:05 AM 89.1°F31.7°C 71.8°F22.1°C 57% 1.6 mph NE2.6 kmh NE 3.8 mph6.1 kmh 29.66 in1004.4 mb 0.00 in0.0 mm 0.00 in0.0 mm 0.00 in0.0 mm
10:04 AM 89.1°F31.7°C 71.8°F22.1°C 57% 2.2 mph SE3.5 kmh SE 3.8 mph6.1 kmh 29.66 in1004.4 mb 0.00 in0.0 mm 0.00 in0.0 mm 0.00 in0.0 mm
10:03 AM 88.9°F31.6°C 72.1°F22.3°C 58% 0.7 mph SE1.1 kmh SE 3.1 mph5.0 kmh 29.66 in1004.4 mb 0.00 in0.0 mm 0.00 in0.0 mm 0.00 in0.0 mm
10:02 AM 88.7°F31.5°C 72.0°F22.2°C 58% 1.6 mph S2.6 kmh S 4.5 mph7.2 kmh 29.66 in1004.4 mb 0.00 in0.0 mm 0.00 in0.0 mm 0.00 in0.0 mm
10:01 AM 88.7°F31.5°C 72.0°F22.2°C 58% 2.2 mph SE3.5 kmh SE 4.5 mph7.2 kmh 29.66 in1004.4 mb 0.00 in0.0 mm 0.00 in0.0 mm 0.00 in0.0 mm
10:00 AM 88.7°F31.5°C 72.0°F22.2°C 58% Calm Calm 4.5 mph7.2 kmh 29.66 in1004.4 mb 0.00 in0.0 mm 0.00 in0.0 mm 0.00 in0.0 mm
09:58 AM 88.7°F31.5°C 72.5°F22.5°C 59% 1.6 mph S2.6 kmh S 4.5 mph7.2 kmh 29.66 in1004.4 mb 0.00 in0.0 mm 0.00 in0.0 mm 0.00 in0.0 mm
09:57 AM 88.5°F31.4°C 72.3°F22.4°C 59% 0.7 mph E1.1 kmh E 3.1 mph5.0 kmh 29.66 in1004.4 mb 0.00 in0.0 mm 0.00 in0.0 mm 0.00 in0.0 mm
09:56 AM 88.3°F31.3°C 72.1°F22.3°C 59% 1.6 mph NE2.6 kmh NE 3.1 mph5.0 kmh 29.66 in1004.4 mb 0.00 in0.0 mm 0.00 in0.0 mm 0.00 in0.0 mm
09:55 AM 88.3°F31.3°C 72.1°F22.3°C 59% 0.7 mph E1.1 kmh E 3.8 mph6.1 kmh 29.66 in1004.4 mb 0.00 in0.0 mm 0.00 in0.0 mm 0.00 in0.0 mm
09:54 AM 88.2°F31.2°C 72.5°F22.5°C 60% 1.6 mph NW2.6 kmh NW 3.8 mph6.1 kmh 29.65 in1004.1 mb 0.00 in0.0 mm 0.00 in0.0 mm 0.00 in0.0 mm
09:52 AM 88.2°F31.2°C 72.5°F22.5°C 60% 0.7 mph NE1.1 kmh NE 2.2 mph3.5 kmh 29.66 in1004.4 mb 0.00 in0.0 mm 0.00 in0.0 mm 0.00 in0.0 mm
09:51 AM 88.0°F31.1°C 72.3°F22.4°C 60% 1.6 mph SE2.6 kmh SE 3.1 mph5.0 kmh 29.65 in1004.1 mb 0.00 in0.0 mm 0.00 in0.0 mm 0.00 in0.0 mm
09:50 AM 88.0°F31.1°C 72.3°F22.4°C 60% 0.7 mph SE1.1 kmh SE 3.1 mph5.0 kmh 29.65 in1004.1 mb 0.00 in0.0 mm 0.00 in0.0 mm 0.00 in0.0 mm
09:49 AM 87.8°F31.0°C 72.7°F22.6°C 61% 1.6 mph E2.6 kmh E 3.1 mph5.0 kmh 29.66 in1004.4 mb 0.00 in0.0 mm 0.00 in0.0 mm 0.00 in0.0 mm
09:48 AM 87.6°F30.9°C 72.5°F22.5°C 61% 0.7 mph NE1.1 kmh NE 3.1 mph5.0 kmh 29.66 in1004.4 mb 0.00 in0.0 mm 0.00 in0.0 mm 0.00 in0.0 mm
09:47 AM 87.6°F30.9°C 72.5°F22.5°C 61% 0.7 mph E1.1 kmh E 2.2 mph3.5 kmh 29.66 in1004.4 mb 0.00 in0.0 mm 0.00 in0.0 mm 0.00 in0.0 mm
09:45 AM 87.4°F30.8°C 72.3°F22.4°C 61% 0.7 mph S1.1 kmh S 2.2 mph3.5 kmh 29.66 in1004.4 mb 0.00 in0.0 mm 0.00 in0.0 mm 0.00 in0.0 mm
09:44 AM 87.4°F30.8°C 72.3°F22.4°C 61% Calm Calm 2.2 mph3.5 kmh 29.66 in1004.4 mb 0.00 in0.0 mm 0.00 in0.0 mm 0.00 in0.0 mm
09:43 AM 87.4°F30.8°C 72.3°F22.4°C 61% 0.7 mph 1.1 kmh 3.1 mph5.0 kmh 29.66 in1004.4 mb 0.00 in0.0 mm 0.00 in0.0 mm 0.00 in0.0 mm
09:42 AM 87.3°F30.7°C 72.1°F22.3°C 61% Calm Calm 3.8 mph6.1 kmh 29.66 in1004.4 mb 0.00 in0.0 mm 0.00 in0.0 mm 0.00 in0.0 mm
09:41 AM 87.1°F30.6°C 72.0°F22.2°C 61% 1.6 mph ENE2.6 kmh ENE 3.8 mph6.1 kmh 29.66 in1004.4 mb 0.00 in0.0 mm 0.00 in0.0 mm 0.00 in0.0 mm
09:40 AM 87.1°F30.6°C 72.5°F22.5°C 62% 0.7 mph E1.1 kmh E 2.2 mph3.5 kmh 29.66 in1004.4 mb 0.00 in0.0 mm 0.00 in0.0 mm 0.00 in0.0 mm
09:38 AM 86.9°F30.5°C 72.3°F22.4°C 62% 0.7 mph E1.1 kmh E 2.2 mph3.5 kmh 29.66 in1004.4 mb 0.00 in0.0 mm 0.00 in0.0 mm 0.00 in0.0 mm
09:37 AM 86.9°F30.5°C 72.3°F22.4°C 62% 0.7 mph 1.1 kmh 3.1 mph5.0 kmh 29.66 in1004.4 mb 0.00 in0.0 mm 0.00 in0.0 mm 0.00 in0.0 mm
09:36 AM 86.7°F30.4°C 72.7°F22.6°C 63% 1.6 mph E2.6 kmh E 3.1 mph5.0 kmh 29.66 in1004.4 mb 0.00 in0.0 mm 0.00 in0.0 mm 0.00 in0.0 mm
09:35 AM 86.5°F30.3°C 72.0°F22.2°C 62% Calm Calm 2.2 mph3.5 kmh 29.66 in1004.4 mb 0.00 in0.0 mm 0.00 in0.0 mm 0.00 in0.0 mm
09:34 AM 86.5°F30.3°C 72.0°F22.2°C 62% 0.7 mph SE1.1 kmh SE 3.8 mph6.1 kmh 29.66 in1004.4 mb 0.00 in0.0 mm 0.00 in0.0 mm 0.00 in0.0 mm
09:33 AM 86.4°F30.2°C 71.8°F22.1°C 62% 0.7 mph SE1.1 kmh SE 2.2 mph3.5 kmh 29.66 in1004.4 mb 0.00 in0.0 mm 0.00 in0.0 mm 0.00 in0.0 mm
09:31 AM 86.2°F30.1°C 71.1°F21.7°C 61% Calm Calm 1.6 mph2.6 kmh 29.66 in1004.4 mb 0.00 in0.0 mm 0.00 in0.0 mm 0.00 in0.0 mm
09:30 AM 86.2°F30.1°C 71.6°F22.0°C 62% 0.7 mph NE1.1 kmh NE 2.2 mph3.5 kmh 29.66 in1004.4 mb 0.00 in0.0 mm 0.00 in0.0 mm 0.00 in0.0 mm
09:29 AM 86.0°F30.0°C 72.0°F22.2°C 63% 0.7 mph SE1.1 kmh SE 2.2 mph3.5 kmh 29.66 in1004.4 mb 0.00 in0.0 mm 0.00 in0.0 mm 0.00 in0.0 mm
09:28 AM 85.8°F29.9°C 71.8°F22.1°C 63% 0.7 mph SE1.1 kmh SE 3.1 mph5.0 kmh 29.66 in1004.4 mb 0.00 in0.0 mm 0.00 in0.0 mm 0.00 in0.0 mm
09:27 AM 85.6°F29.8°C 71.6°F22.0°C 63% 1.6 mph SW2.6 kmh SW 3.8 mph6.1 kmh 29.66 in1004.4 mb 0.00 in0.0 mm 0.00 in0.0 mm 0.00 in0.0 mm
09:25 AM 85.5°F29.7°C 71.4°F21.9°C 63% 1.6 mph S2.6 kmh S 3.8 mph6.1 kmh 29.66 in1004.4 mb 0.00 in0.0 mm 0.00 in0.0 mm 0.00 in0.0 mm
09:24 AM 85.3°F29.6°C 71.8°F22.1°C 64% 0.7 mph NE1.1 kmh NE 3.8 mph6.1 kmh 29.66 in1004.4 mb 0.00 in0.0 mm 0.00 in0.0 mm 0.00 in0.0 mm
09:23 AM 85.3°F29.6°C 71.8°F22.1°C 64% 2.2 mph SSE3.5 kmh SSE 3.8 mph6.1 kmh 29.66 in1004.4 mb 0.00 in0.0 mm 0.00 in0.0 mm 0.00 in0.0 mm
09:22 AM 84.9°F29.4°C 71.4°F21.9°C 64% Calm Calm 1.6 mph2.6 kmh 29.66 in1004.4 mb 0.00 in0.0 mm 0.00 in0.0 mm 0.00 in0.0 mm
09:21 AM 84.9°F29.4°C 71.4°F21.9°C 64% Calm Calm 1.6 mph2.6 kmh 29.66 in1004.4 mb 0.00 in0.0 mm 0.00 in0.0 mm 0.00 in0.0 mm
09:20 AM 84.9°F29.4°C 71.4°F21.9°C 64% Calm Calm 2.2 mph3.5 kmh 29.66 in1004.4 mb 0.00 in0.0 mm 0.00 in0.0 mm 0.00 in0.0 mm
09:18 AM 84.6°F29.2°C 71.4°F21.9°C 65% 0.7 mph E1.1 kmh E 2.2 mph3.5 kmh 29.66 in1004.4 mb 0.00 in0.0 mm 0.00 in0.0 mm 0.00 in0.0 mm
09:17 AM 84.6°F29.2°C 71.4°F21.9°C 65% 1.6 mph SE2.6 kmh SE 3.8 mph6.1 kmh 29.66 in1004.4 mb 0.00 in0.0 mm 0.00 in0.0 mm 0.00 in0.0 mm
09:16 AM 84.4°F29.1°C 70.9°F21.6°C 64% 1.6 mph SE2.6 kmh SE 3.8 mph6.1 kmh 29.66 in1004.4 mb 0.00 in0.0 mm 0.00 in0.0 mm 0.00 in0.0 mm
09:15 AM 84.2°F29.0°C 71.2°F21.8°C 65% 0.7 mph SE1.1 kmh SE 3.1 mph5.0 kmh 29.66 in1004.4 mb 0.00 in0.0 mm 0.00 in0.0 mm 0.00 in0.0 mm
09:14 AM 84.0°F28.9°C 71.1°F21.7°C 65% 1.6 mph SE2.6 kmh SE 3.1 mph5.0 kmh 29.66 in1004.4 mb 0.00 in0.0 mm 0.00 in0.0 mm 0.00 in0.0 mm
09:13 AM 84.0°F28.9°C 71.1°F21.7°C 65% 0.7 mph SE1.1 kmh SE 2.2 mph3.5 kmh 29.66 in1004.4 mb 0.00 in0.0 mm 0.00 in0.0 mm 0.00 in0.0 mm
09:11 AM 83.8°F28.8°C 71.8°F22.1°C 67% 0.7 mph SW1.1 kmh SW 2.2 mph3.5 kmh 29.66 in1004.4 mb 0.00 in0.0 mm 0.00 in0.0 mm 0.00 in0.0 mm
09:10 AM 83.8°F28.8°C 72.1°F22.3°C 68% Calm Calm 2.2 mph3.5 kmh 29.66 in1004.4 mb 0.00 in0.0 mm 0.00 in0.0 mm 0.00 in0.0 mm
09:09 AM 83.7°F28.7°C 71.6°F22.0°C 67% 0.7 mph S1.1 kmh S 2.2 mph3.5 kmh 29.66 in1004.4 mb 0.00 in0.0 mm 0.00 in0.0 mm 0.00 in0.0 mm
09:08 AM 83.7°F28.7°C 71.6°F22.0°C 67% 0.7 mph W1.1 kmh W 2.2 mph3.5 kmh 29.66 in1004.4 mb 0.00 in0.0 mm 0.00 in0.0 mm 0.00 in0.0 mm
09:07 AM 83.5°F28.6°C 71.8°F22.1°C 68% Calm Calm 1.6 mph2.6 kmh 29.66 in1004.4 mb 0.00 in0.0 mm 0.00 in0.0 mm 0.00 in0.0 mm
09:05 AM 83.5°F28.6°C 71.8°F22.1°C 68% Calm Calm 1.6 mph2.6 kmh 29.66 in1004.4 mb 0.00 in0.0 mm 0.00 in0.0 mm 0.00 in0.0 mm
09:04 AM 83.3°F28.5°C 71.2°F21.8°C 67% Calm Calm 0.7 mph1.1 kmh 29.66 in1004.4 mb 0.00 in0.0 mm 0.00 in0.0 mm 0.00 in0.0 mm
09:03 AM 83.3°F28.5°C 71.2°F21.8°C 67% Calm Calm 3.8 mph6.1 kmh 29.66 in1004.4 mb 0.00 in0.0 mm 0.00 in0.0 mm 0.00 in0.0 mm
09:02 AM 83.1°F28.4°C 71.4°F21.9°C 68% 1.6 mph E2.6 kmh E 3.8 mph6.1 kmh 29.66 in1004.4 mb 0.00 in0.0 mm 0.00 in0.0 mm 0.00 in0.0 mm
09:01 AM 83.1°F28.4°C 72.0°F22.2°C 69% 0.7 mph SE1.1 kmh SE 2.2 mph3.5 kmh 29.66 in1004.4 mb 0.00 in0.0 mm 0.00 in0.0 mm 0.00 in0.0 mm
09:00 AM 82.9°F28.3°C 71.8°F22.1°C 69% 0.7 mph E1.1 kmh E 2.2 mph3.5 kmh 29.66 in1004.4 mb 0.00 in0.0 mm 0.00 in0.0 mm 0.00 in0.0 mm
08:58 AM 82.8°F28.2°C 71.6°F22.0°C 69% Calm Calm 1.6 mph2.6 kmh 29.66 in1004.4 mb 0.00 in0.0 mm 0.00 in0.0 mm 0.00 in0.0 mm
08:57 AM 82.8°F28.2°C 71.6°F22.0°C 69% Calm Calm 1.6 mph2.6 kmh 29.66 in1004.4 mb 0.00 in0.0 mm 0.00 in0.0 mm 0.00 in0.0 mm
08:56 AM 82.6°F28.1°C 70.9°F21.6°C 68% Calm Calm 1.6 mph2.6 kmh 29.66 in1004.4 mb 0.00 in0.0 mm 0.00 in0.0 mm 0.00 in0.0 mm
08:55 AM 82.6°F28.1°C 70.9°F21.6°C 68% Calm Calm 1.6 mph2.6 kmh 29.66 in1004.4 mb 0.00 in0.0 mm 0.00 in0.0 mm 0.00 in0.0 mm
08:54 AM 82.4°F28.0°C 71.2°F21.8°C 69% Calm Calm 2.2 mph3.5 kmh 29.66 in1004.4 mb 0.00 in0.0 mm 0.00 in0.0 mm 0.00 in0.0 mm
08:53 AM 82.4°F28.0°C 71.2°F21.8°C 69% 0.7 mph SE1.1 kmh SE 1.6 mph2.6 kmh 29.66 in1004.4 mb 0.00 in0.0 mm 0.00 in0.0 mm 0.00 in0.0 mm
08:51 AM 82.4°F28.0°C 71.6°F22.0°C 70% Calm Calm 1.6 mph2.6 kmh 29.66 in1004.4 mb 0.00 in0.0 mm 0.00 in0.0 mm 0.00 in0.0 mm
08:50 AM 82.2°F27.9°C 71.1°F21.7°C 69% Calm Calm 0.7 mph1.1 kmh 29.66 in1004.4 mb 0.00 in0.0 mm 0.00 in0.0 mm 0.00 in0.0 mm
08:49 AM 82.2°F27.9°C 71.1°F21.7°C 69% Calm Calm 0.7 mph1.1 kmh 29.67 in1004.7 mb 0.00 in0.0 mm 0.00 in0.0 mm 0.00 in0.0 mm
08:48 AM 82.2°F27.9°C 71.1°F21.7°C 69% Calm Calm 0.7 mph1.1 kmh 29.66 in1004.4 mb 0.00 in0.0 mm 0.00 in0.0 mm 0.00 in0.0 mm
08:47 AM 82.0°F27.8°C 70.3°F21.3°C 68% Calm Calm 0.7 mph1.1 kmh 29.66 in1004.4 mb 0.00 in0.0 mm 0.00 in0.0 mm 0.00 in0.0 mm
08:46 AM 82.0°F27.8°C 70.3°F21.3°C 68% Calm Calm 0.7 mph1.1 kmh 29.66 in1004.4 mb 0.00 in0.0 mm 0.00 in0.0 mm 0.00 in0.0 mm
08:44 AM 82.0°F27.8°C 70.9°F21.6°C 69% Calm Calm 0.7 mph1.1 kmh 29.66 in1004.4 mb 0.00 in0.0 mm 0.00 in0.0 mm 0.00 in0.0 mm
08:43 AM 82.0°F27.8°C 70.3°F21.3°C 68% Calm Calm 0.7 mph1.1 kmh 29.66 in1004.4 mb 0.00 in0.0 mm 0.00 in0.0 mm 0.00 in0.0 mm
08:42 AM 81.9°F27.7°C 70.3°F21.3°C 68% Calm Calm 1.6 mph2.6 kmh 29.66 in1004.4 mb 0.00 in0.0 mm 0.00 in0.0 mm 0.00 in0.0 mm
08:41 AM 81.9°F27.7°C 70.7°F21.5°C 69% Calm Calm 2.2 mph3.5 kmh 29.66 in1004.4 mb 0.00 in0.0 mm 0.00 in0.0 mm 0.00 in0.0 mm
08:40 AM 81.9°F27.7°C 71.1°F21.7°C 70% Calm Calm 1.6 mph2.6 kmh 29.66 in1004.4 mb 0.00 in0.0 mm 0.00 in0.0 mm 0.00 in0.0 mm
08:38 AM 81.7°F27.6°C 70.9°F21.6°C 70% Calm Calm 1.6 mph2.6 kmh 29.66 in1004.4 mb 0.00 in0.0 mm 0.00 in0.0 mm 0.00 in0.0 mm
08:37 AM 81.7°F27.6°C 70.5°F21.4°C 69% Calm Calm 2.2 mph3.5 kmh 29.66 in1004.4 mb 0.00 in0.0 mm 0.00 in0.0 mm 0.00 in0.0 mm
08:36 AM 81.7°F27.6°C 70.9°F21.6°C 70% 0.7 mph W1.1 kmh W 2.2 mph3.5 kmh 29.66 in1004.4 mb 0.00 in0.0 mm 0.00 in0.0 mm 0.00 in0.0 mm
08:35 AM 81.7°F27.6°C 70.5°F21.4°C 69% Calm Calm 2.2 mph3.5 kmh 29.66 in1004.4 mb 0.00 in0.0 mm 0.00 in0.0 mm 0.00 in0.0 mm
08:34 AM 81.7°F27.6°C 70.9°F21.6°C 70% Calm Calm 2.2 mph3.5 kmh 29.66 in1004.4 mb 0.00 in0.0 mm 0.00 in0.0 mm 0.00 in0.0 mm
08:33 AM 81.7°F27.6°C 70.5°F21.4°C 69% Calm Calm 1.6 mph2.6 kmh 29.66 in1004.4 mb 0.00 in0.0 mm 0.00 in0.0 mm 0.00 in0.0 mm
08:31 AM 81.5°F27.5°C 70.0°F21.1°C 68% Calm Calm 0.7 mph1.1 kmh 29.66 in1004.4 mb 0.00 in0.0 mm 0.00 in0.0 mm 0.00 in0.0 mm
08:30 AM 81.5°F27.5°C 69.4°F20.8°C 67% Calm Calm 1.6 mph2.6 kmh 29.66 in1004.4 mb 0.00 in0.0 mm 0.00 in0.0 mm 0.00 in0.0 mm
08:29 AM 81.5°F27.5°C 70.3°F21.3°C 69% Calm Calm 2.2 mph3.5 kmh 29.66 in1004.4 mb 0.00 in0.0 mm 0.00 in0.0 mm 0.00 in0.0 mm
08:28 AM 81.7°F27.6°C 70.5°F21.4°C 69% 0.7 mph NE1.1 kmh NE 2.2 mph3.5 kmh 29.66 in1004.4 mb 0.00 in0.0 mm 0.00 in0.0 mm 0.00 in0.0 mm
08:27 AM 81.3°F27.4°C 69.8°F21.0°C 68% 0.7 mph 1.1 kmh 1.6 mph2.6 kmh 29.65 in1004.1 mb 0.00 in0.0 mm 0.00 in0.0 mm 0.00 in0.0 mm
08:26 AM 81.3°F27.4°C 69.8°F21.0°C 68% Calm Calm 2.2 mph3.5 kmh 29.65 in1004.1 mb 0.00 in0.0 mm 0.00 in0.0 mm 0.00 in0.0 mm
08:24 AM 81.3°F27.4°C 69.8°F21.0°C 68% Calm Calm 1.6 mph2.6 kmh 29.65 in1004.1 mb 0.00 in0.0 mm 0.00 in0.0 mm 0.00 in0.0 mm
08:23 AM 81.3°F27.4°C 69.8°F21.0°C 68% Calm Calm 2.2 mph3.5 kmh 29.65 in1004.1 mb 0.00 in0.0 mm 0.00 in0.0 mm 0.00 in0.0 mm
08:22 AM 81.3°F27.4°C 70.2°F21.2°C 69% Calm Calm 2.2 mph3.5 kmh 29.65 in1004.1 mb 0.00 in0.0 mm 0.00 in0.0 mm 0.00 in0.0 mm
08:21 AM 81.3°F27.4°C 69.8°F21.0°C 68% Calm Calm 1.6 mph2.6 kmh 29.65 in1004.1 mb 0.00 in0.0 mm 0.00 in0.0 mm 0.00 in0.0 mm
08:20 AM 81.1°F27.3°C 69.6°F20.9°C 68% Calm Calm 1.6 mph2.6 kmh 29.65 in1004.1 mb 0.00 in0.0 mm 0.00 in0.0 mm 0.00 in0.0 mm
08:19 AM 81.0°F27.2°C 69.4°F20.8°C 68% Calm Calm 1.6 mph2.6 kmh 29.65 in1004.1 mb 0.00 in0.0 mm 0.00 in0.0 mm 0.00 in0.0 mm
08:17 AM 81.0°F27.2°C 69.4°F20.8°C 68% Calm Calm 0.7 mph1.1 kmh 29.65 in1004.1 mb 0.00 in0.0 mm 0.00 in0.0 mm 0.00 in0.0 mm
08:16 AM 81.0°F27.2°C 69.4°F20.8°C 68% Calm Calm 0.7 mph1.1 kmh 29.65 in1004.1 mb 0.00 in0.0 mm 0.00 in0.0 mm 0.00 in0.0 mm
08:15 AM 81.0°F27.2°C 69.4°F20.8°C 68% Calm Calm 3.1 mph5.0 kmh 29.65 in1004.1 mb 0.00 in0.0 mm 0.00 in0.0 mm 0.00 in0.0 mm
08:14 AM 80.8°F27.1°C 69.3°F20.7°C 68% 0.7 mph E1.1 kmh E 3.1 mph5.0 kmh 29.65 in1004.1 mb 0.00 in0.0 mm 0.00 in0.0 mm 0.00 in0.0 mm
08:13 AM 80.8°F27.1°C 69.3°F20.7°C 68% Calm Calm 2.2 mph3.5 kmh 29.65 in1004.1 mb 0.00 in0.0 mm 0.00 in0.0 mm 0.00 in0.0 mm
08:11 AM 80.8°F27.1°C 69.3°F20.7°C 68% 0.7 mph SE1.1 kmh SE 2.2 mph3.5 kmh 29.64 in1003.7 mb 0.00 in0.0 mm 0.00 in0.0 mm 0.00 in0.0 mm
08:10 AM 80.6°F27.0°C 69.1°F20.6°C 68% 0.7 mph E1.1 kmh E 2.2 mph3.5 kmh 29.64 in1003.7 mb 0.00 in0.0 mm 0.00 in0.0 mm 0.00 in0.0 mm
08:09 AM 80.6°F27.0°C 69.1°F20.6°C 68% 1.6 mph E2.6 kmh E 2.2 mph3.5 kmh 29.64 in1003.7 mb 0.00 in0.0 mm 0.00 in0.0 mm 0.00 in0.0 mm
08:08 AM 80.6°F27.0°C 69.1°F20.6°C 68% 0.7 mph NE1.1 kmh NE 2.2 mph3.5 kmh 29.64 in1003.7 mb 0.00 in0.0 mm 0.00 in0.0 mm 0.00 in0.0 mm
08:07 AM 80.6°F27.0°C 69.4°F20.8°C 69% 0.7 mph E1.1 kmh E 2.2 mph3.5 kmh 29.64 in1003.7 mb 0.00 in0.0 mm 0.00 in0.0 mm 0.00 in0.0 mm
08:06 AM 80.4°F26.9°C 69.3°F20.7°C 69% 0.7 mph NE1.1 kmh NE 2.2 mph3.5 kmh 29.65 in1004.1 mb 0.00 in0.0 mm 0.00 in0.0 mm 0.00 in0.0 mm
08:04 AM 80.4°F26.9°C 69.3°F20.7°C 69% Calm Calm 2.2 mph3.5 kmh 29.64 in1003.7 mb 0.00 in0.0 mm 0.00 in0.0 mm 0.00 in0.0 mm
08:03 AM 80.4°F26.9°C 69.3°F20.7°C 69% Calm Calm 0.7 mph1.1 kmh 29.65 in1004.1 mb 0.00 in0.0 mm 0.00 in0.0 mm 0.00 in0.0 mm
08:02 AM 80.4°F26.9°C 69.3°F20.7°C 69% Calm Calm 0.7 mph1.1 kmh 29.64 in1003.7 mb 0.00 in0.0 mm 0.00 in0.0 mm 0.00 in0.0 mm
08:01 AM 80.2°F26.8°C 69.1°F20.6°C 69% Calm Calm 2.2 mph3.5 kmh 29.64 in1003.7 mb 0.00 in0.0 mm 0.00 in0.0 mm 0.00 in0.0 mm
08:00 AM 80.2°F26.8°C 69.1°F20.6°C 69% 1.6 mph E2.6 kmh E 3.1 mph5.0 kmh 29.65 in1004.1 mb 0.00 in0.0 mm 0.00 in0.0 mm 0.00 in0.0 mm
07:59 AM 80.2°F26.8°C 69.1°F20.6°C 69% 0.7 mph SE1.1 kmh SE 3.8 mph6.1 kmh 29.64 in1003.7 mb 0.00 in0.0 mm 0.00 in0.0 mm 0.00 in0.0 mm
07:57 AM 80.1°F26.7°C 68.9°F20.5°C 69% 2.2 mph E3.5 kmh E 4.5 mph7.2 kmh 29.64 in1003.7 mb 0.00 in0.0 mm 0.00 in0.0 mm 0.00 in0.0 mm
07:56 AM 80.1°F26.7°C 69.4°F20.8°C 70% 2.2 mph E3.5 kmh E 4.5 mph7.2 kmh 29.65 in1004.1 mb 0.00 in0.0 mm 0.00 in0.0 mm 0.00 in0.0 mm
07:55 AM 80.1°F26.7°C 69.4°F20.8°C 70% Calm Calm 2.2 mph3.5 kmh 29.64 in1003.7 mb 0.00 in0.0 mm 0.00 in0.0 mm 0.00 in0.0 mm
07:54 AM 79.9°F26.6°C 69.3°F20.7°C 70% 0.7 mph SE1.1 kmh SE 2.2 mph3.5 kmh 29.64 in1003.7 mb 0.00 in0.0 mm 0.00 in0.0 mm 0.00 in0.0 mm
07:53 AM 79.9°F26.6°C 69.3°F20.7°C 70% Calm Calm 0.7 mph1.1 kmh 29.64 in1003.7 mb 0.00 in0.0 mm 0.00 in0.0 mm 0.00 in0.0 mm
07:51 AM 79.9°F26.6°C 69.3°F20.7°C 70% Calm Calm 0.7 mph1.1 kmh 29.64 in1003.7 mb 0.00 in0.0 mm 0.00 in0.0 mm 0.00 in0.0 mm
07:50 AM 79.9°F26.6°C 69.3°F20.7°C 70% Calm Calm 1.6 mph2.6 kmh 29.64 in1003.7 mb 0.00 in0.0 mm 0.00 in0.0 mm 0.00 in0.0 mm
07:49 AM 79.9°F26.6°C 68.7°F20.4°C 69% Calm Calm 1.6 mph2.6 kmh 29.64 in1003.7 mb 0.00 in0.0 mm 0.00 in0.0 mm 0.00 in0.0 mm
07:48 AM 79.7°F26.5°C 68.5°F20.3°C 69% Calm Calm 1.6 mph2.6 kmh 29.64 in1003.7 mb 0.00 in0.0 mm 0.00 in0.0 mm 0.00 in0.0 mm
07:47 AM 79.7°F26.5°C 68.5°F20.3°C 69% Calm Calm 3.1 mph5.0 kmh 29.64 in1003.7 mb 0.00 in0.0 mm 0.00 in0.0 mm 0.00 in0.0 mm
07:46 AM 79.7°F26.5°C 68.5°F20.3°C 69% 0.7 mph E1.1 kmh E 3.1 mph5.0 kmh 29.63 in1003.4 mb 0.00 in0.0 mm 0.00 in0.0 mm 0.00 in0.0 mm
07:44 AM 79.7°F26.5°C 68.5°F20.3°C 69% 0.7 mph ENE1.1 kmh ENE 3.1 mph5.0 kmh 29.63 in1003.4 mb 0.00 in0.0 mm 0.00 in0.0 mm 0.00 in0.0 mm
07:43 AM 79.5°F26.4°C 68.5°F20.3°C 69% 1.6 mph NE2.6 kmh NE 3.8 mph6.1 kmh 29.64 in1003.7 mb 0.00 in0.0 mm 0.00 in0.0 mm 0.00 in0.0 mm
07:42 AM 79.5°F26.4°C 68.5°F20.3°C 69% 1.6 mph NE2.6 kmh NE 3.1 mph5.0 kmh 29.63 in1003.4 mb 0.00 in0.0 mm 0.00 in0.0 mm 0.00 in0.0 mm
07:41 AM 79.5°F26.4°C 68.9°F20.5°C 70% Calm Calm 1.6 mph2.6 kmh 29.63 in1003.4 mb 0.00 in0.0 mm 0.00 in0.0 mm 0.00 in0.0 mm
07:40 AM 79.3°F26.3°C 68.4°F20.2°C 69% Calm Calm 0.7 mph1.1 kmh 29.63 in1003.4 mb 0.00 in0.0 mm 0.00 in0.0 mm 0.00 in0.0 mm
07:39 AM 79.3°F26.3°C 68.4°F20.2°C 69% Calm Calm 0.7 mph1.1 kmh 29.63 in1003.4 mb 0.00 in0.0 mm 0.00 in0.0 mm 0.00 in0.0 mm
07:37 AM 79.3°F26.3°C 68.4°F20.2°C 69% 0.7 mph NE1.1 kmh NE 1.6 mph2.6 kmh 29.63 in1003.4 mb 0.00 in0.0 mm 0.00 in0.0 mm 0.00 in0.0 mm
07:36 AM 79.3°F26.3°C 68.7°F20.4°C 70% 0.7 mph NE1.1 kmh NE 1.6 mph2.6 kmh 29.63 in1003.4 mb 0.00 in0.0 mm 0.00 in0.0 mm 0.00 in0.0 mm
07:35 AM 79.3°F26.3°C 68.7°F20.4°C 70% Calm Calm 1.6 mph2.6 kmh 29.63 in1003.4 mb 0.00 in0.0 mm 0.00 in0.0 mm 0.00 in0.0 mm
07:34 AM 79.2°F26.2°C 68.9°F20.5°C 71% Calm Calm 1.6 mph2.6 kmh 29.63 in1003.4 mb 0.00 in0.0 mm 0.00 in0.0 mm 0.00 in0.0 mm
07:33 AM 79.2°F26.2°C 68.5°F20.3°C 70% Calm Calm 1.6 mph2.6 kmh 29.63 in1003.4 mb 0.00 in0.0 mm 0.00 in0.0 mm 0.00 in0.0 mm
07:32 AM 79.2°F26.2°C 68.5°F20.3°C 70% 0.7 mph NE1.1 kmh NE 1.6 mph2.6 kmh 29.63 in1003.4 mb 0.00 in0.0 mm 0.00 in0.0 mm 0.00 in0.0 mm
07:30 AM 79.2°F26.2°C 68.5°F20.3°C 70% 0.7 mph NE1.1 kmh NE 1.6 mph2.6 kmh 29.63 in1003.4 mb 0.00 in0.0 mm 0.00 in0.0 mm 0.00 in0.0 mm
07:29 AM 79.2°F26.2°C 68.5°F20.3°C 70% Calm Calm -- 29.63 in1003.4 mb 0.00 in0.0 mm 0.00 in0.0 mm 0.00 in0.0 mm
07:28 AM 79.0°F26.1°C 68.4°F20.2°C 70% Calm Calm 0.7 mph1.1 kmh 29.63 in1003.4 mb 0.00 in0.0 mm 0.00 in0.0 mm 0.00 in0.0 mm
07:27 AM 79.2°F26.2°C 68.5°F20.3°C 70% Calm Calm 0.7 mph1.1 kmh 29.63 in1003.4 mb 0.00 in0.0 mm 0.00 in0.0 mm 0.00 in0.0 mm
07:26 AM 79.2°F26.2°C 68.2°F20.1°C 69% Calm Calm 0.7 mph1.1 kmh 29.63 in1003.4 mb 0.00 in0.0 mm 0.00 in0.0 mm 0.00 in0.0 mm
07:24 AM 79.0°F26.1°C 68.0°F20.0°C 69% Calm Calm 1.6 mph2.6 kmh 29.62 in1003.0 mb 0.00 in0.0 mm 0.00 in0.0 mm 0.00 in0.0 mm
07:23 AM 79.2°F26.2°C 68.2°F20.1°C 69% Calm Calm 1.6 mph2.6 kmh 29.63 in1003.4 mb 0.00 in0.0 mm 0.00 in0.0 mm 0.00 in0.0 mm
07:22 AM 79.2°F26.2°C 68.2°F20.1°C 69% Calm Calm 1.6 mph2.6 kmh 29.63 in1003.4 mb 0.00 in0.0 mm 0.00 in0.0 mm 0.00 in0.0 mm
07:21 AM 79.0°F26.1°C 68.0°F20.0°C 69% Calm Calm 1.6 mph2.6 kmh 29.63 in1003.4 mb 0.00 in0.0 mm 0.00 in0.0 mm 0.00 in0.0 mm
07:20 AM 79.0°F26.1°C 68.0°F20.0°C 69% Calm Calm 1.6 mph2.6 kmh 29.63 in1003.4 mb 0.00 in0.0 mm 0.00 in0.0 mm 0.00 in0.0 mm
07:19 AM 79.0°F26.1°C 68.0°F20.0°C 69% 0.7 mph 1.1 kmh 1.6 mph2.6 kmh 29.63 in1003.4 mb 0.00 in0.0 mm 0.00 in0.0 mm 0.00 in0.0 mm
07:17 AM 79.0°F26.1°C 68.0°F20.0°C 69% 0.7 mph NW1.1 kmh NW 2.2 mph3.5 kmh 29.62 in1003.0 mb 0.00 in0.0 mm 0.00 in0.0 mm 0.00 in0.0 mm
07:16 AM 79.0°F26.1°C 68.0°F20.0°C 69% 0.7 mph 1.1 kmh 1.6 mph2.6 kmh 29.63 in1003.4 mb 0.00 in0.0 mm 0.00 in0.0 mm 0.00 in0.0 mm
07:15 AM 79.0°F26.1°C 68.0°F20.0°C 69% Calm Calm 0.7 mph1.1 kmh 29.62 in1003.0 mb 0.00 in0.0 mm 0.00 in0.0 mm 0.00 in0.0 mm
07:14 AM 79.2°F26.2°C 67.6°F19.8°C 68% Calm Calm 0.7 mph1.1 kmh 29.63 in1003.4 mb 0.00 in0.0 mm 0.00 in0.0 mm 0.00 in0.0 mm
07:13 AM 79.0°F26.1°C 67.5°F19.7°C 68% Calm Calm 1.6 mph2.6 kmh 29.62 in1003.0 mb 0.00 in0.0 mm 0.00 in0.0 mm 0.00 in0.0 mm
07:12 AM 79.0°F26.1°C 67.5°F19.7°C 68% 0.7 mph 1.1 kmh 1.6 mph2.6 kmh 29.62 in1003.0 mb 0.00 in0.0 mm 0.00 in0.0 mm 0.00 in0.0 mm
07:10 AM 79.0°F26.1°C 67.5°F19.7°C 68% Calm Calm 1.6 mph2.6 kmh 29.62 in1003.0 mb 0.00 in0.0 mm 0.00 in0.0 mm 0.00 in0.0 mm
07:09 AM 79.0°F26.1°C 67.5°F19.7°C 68% Calm Calm 1.6 mph2.6 kmh 29.62 in1003.0 mb 0.00 in0.0 mm 0.00 in0.0 mm 0.00 in0.0 mm
07:08 AM 79.0°F26.1°C 67.5°F19.7°C 68% Calm Calm 1.6 mph2.6 kmh 29.62 in1003.0 mb 0.00 in0.0 mm 0.00 in0.0 mm 0.00 in0.0 mm
07:07 AM 79.0°F26.1°C 67.5°F19.7°C 68% 0.7 mph 1.1 kmh 1.6 mph2.6 kmh 29.62 in1003.0 mb 0.00 in0.0 mm 0.00 in0.0 mm 0.00 in0.0 mm
07:06 AM 79.0°F26.1°C 67.1°F19.5°C 67% Calm Calm 1.6 mph2.6 kmh 29.62 in1003.0 mb 0.00 in0.0 mm 0.00 in0.0 mm 0.00 in0.0 mm
07:04 AM 79.0°F26.1°C 67.1°F19.5°C 67% Calm Calm -- 29.62 in1003.0 mb 0.00 in0.0 mm 0.00 in0.0 mm 0.00 in0.0 mm
07:03 AM 79.0°F26.1°C 67.1°F19.5°C 67% Calm Calm -- 29.62 in1003.0 mb 0.00 in0.0 mm 0.00 in0.0 mm 0.00 in0.0 mm
07:02 AM 79.0°F26.1°C 67.1°F19.5°C 67% Calm Calm 0.7 mph1.1 kmh 29.62 in1003.0 mb 0.00 in0.0 mm 0.00 in0.0 mm 0.00 in0.0 mm
07:01 AM 79.0°F26.1°C 67.1°F19.5°C 67% Calm Calm 0.7 mph1.1 kmh 29.62 in1003.0 mb 0.00 in0.0 mm 0.00 in0.0 mm 0.00 in0.0 mm
07:00 AM 79.2°F26.2°C 66.7°F19.3°C 66% Calm Calm 1.6 mph2.6 kmh 29.62 in1003.0 mb 0.00 in0.0 mm 0.00 in0.0 mm 0.00 in0.0 mm
06:59 AM 79.2°F26.2°C 66.7°F19.3°C 66% Calm Calm 1.6 mph2.6 kmh 29.62 in1003.0 mb 0.00 in0.0 mm 0.00 in0.0 mm 0.00 in0.0 mm
06:57 AM 79.0°F26.1°C 66.6°F19.2°C 66% Calm Calm 0.7 mph1.1 kmh 29.62 in1003.0 mb 0.00 in0.0 mm 0.00 in0.0 mm 0.00 in0.0 mm
06:56 AM 79.2°F26.2°C 66.7°F19.3°C 66% Calm Calm -- 29.62 in1003.0 mb 0.00 in0.0 mm 0.00 in0.0 mm 0.00 in0.0 mm
06:55 AM 79.2°F26.2°C 66.4°F19.1°C 65% Calm Calm 0.7 mph1.1 kmh 29.62 in1003.0 mb 0.00 in0.0 mm 0.00 in0.0 mm 0.00 in0.0 mm
06:54 AM 79.2°F26.2°C 66.4°F19.1°C 65% Calm Calm 0.7 mph1.1 kmh 29.62 in1003.0 mb 0.00 in0.0 mm 0.00 in0.0 mm 0.00 in0.0 mm
06:53 AM 79.2°F26.2°C 66.4°F19.1°C 65% Calm Calm 0.7 mph1.1 kmh 29.62 in1003.0 mb 0.00 in0.0 mm 0.00 in0.0 mm 0.00 in0.0 mm
06:52 AM 79.2°F26.2°C 66.4°F19.1°C 65% Calm Calm 0.7 mph1.1 kmh 29.62 in1003.0 mb 0.00 in0.0 mm 0.00 in0.0 mm 0.00 in0.0 mm
06:50 AM 79.2°F26.2°C 66.4°F19.1°C 65% Calm Calm 0.7 mph1.1 kmh 29.61 in1002.7 mb 0.00 in0.0 mm 0.00 in0.0 mm 0.00 in0.0 mm
06:49 AM 79.2°F26.2°C 66.4°F19.1°C 65% Calm Calm 0.7 mph1.1 kmh 29.61 in1002.7 mb 0.00 in0.0 mm 0.00 in0.0 mm 0.00 in0.0 mm
06:48 AM 79.2°F26.2°C 65.8°F18.8°C 64% Calm Calm 0.7 mph1.1 kmh 29.61 in1002.7 mb 0.00 in0.0 mm 0.00 in0.0 mm 0.00 in0.0 mm
06:47 AM 79.2°F26.2°C 65.8°F18.8°C 64% 0.7 mph W1.1 kmh W 1.6 mph2.6 kmh 29.61 in1002.7 mb 0.00 in0.0 mm 0.00 in0.0 mm 0.00 in0.0 mm
06:46 AM 79.2°F26.2°C 65.8°F18.8°C 64% 0.7 mph W1.1 kmh W 1.6 mph2.6 kmh 29.61 in1002.7 mb 0.00 in0.0 mm 0.00 in0.0 mm 0.00 in0.0 mm
06:45 AM 79.2°F26.2°C 65.8°F18.8°C 64% 0.7 mph NW1.1 kmh NW 1.6 mph2.6 kmh 29.61 in1002.7 mb 0.00 in0.0 mm 0.00 in0.0 mm 0.00 in0.0 mm
06:43 AM 79.3°F26.3°C 66.0°F18.9°C 64% Calm Calm 1.6 mph2.6 kmh 29.61 in1002.7 mb 0.00 in0.0 mm 0.00 in0.0 mm 0.00 in0.0 mm
06:42 AM 79.2°F26.2°C 65.8°F18.8°C 64% 0.7 mph W1.1 kmh W 1.6 mph2.6 kmh 29.61 in1002.7 mb 0.00 in0.0 mm 0.00 in0.0 mm 0.00 in0.0 mm
06:41 AM 79.3°F26.3°C 66.0°F18.9°C 64% 0.7 mph NW1.1 kmh NW 1.6 mph2.6 kmh 29.61 in1002.7 mb 0.00 in0.0 mm 0.00 in0.0 mm 0.00 in0.0 mm
06:40 AM 79.3°F26.3°C 65.7°F18.7°C 63% Calm Calm 2.2 mph3.5 kmh 29.61 in1002.7 mb 0.00 in0.0 mm 0.00 in0.0 mm 0.00 in0.0 mm
06:39 AM 79.3°F26.3°C 65.7°F18.7°C 63% 0.7 mph W1.1 kmh W 3.8 mph6.1 kmh 29.61 in1002.7 mb 0.00 in0.0 mm 0.00 in0.0 mm 0.00 in0.0 mm
06:37 AM 79.3°F26.3°C 65.7°F18.7°C 63% 1.6 mph SW2.6 kmh SW 3.8 mph6.1 kmh 29.61 in1002.7 mb 0.00 in0.0 mm 0.00 in0.0 mm 0.00 in0.0 mm
06:36 AM 79.3°F26.3°C 65.7°F18.7°C 63% 2.2 mph NW3.5 kmh NW 4.5 mph7.2 kmh 29.61 in1002.7 mb 0.00 in0.0 mm 0.00 in0.0 mm 0.00 in0.0 mm
06:35 AM 79.3°F26.3°C 65.7°F18.7°C 63% 1.6 mph W2.6 kmh W 4.5 mph7.2 kmh 29.61 in1002.7 mb 0.00 in0.0 mm 0.00 in0.0 mm 0.00 in0.0 mm
06:34 AM 79.5°F26.4°C 65.8°F18.8°C 63% 0.7 mph W1.1 kmh W 2.2 mph3.5 kmh 29.61 in1002.7 mb 0.00 in0.0 mm 0.00 in0.0 mm 0.00 in0.0 mm
06:33 AM 79.5°F26.4°C 66.2°F19.0°C 64% 0.7 mph W1.1 kmh W 1.6 mph2.6 kmh 29.60 in1002.4 mb 0.00 in0.0 mm 0.00 in0.0 mm 0.00 in0.0 mm
06:32 AM 79.5°F26.4°C 66.2°F19.0°C 64% 0.7 mph NW1.1 kmh NW 2.2 mph3.5 kmh 29.60 in1002.4 mb 0.00 in0.0 mm 0.00 in0.0 mm 0.00 in0.0 mm
06:30 AM 79.7°F26.5°C 66.4°F19.1°C 64% 0.7 mph SW1.1 kmh SW 2.2 mph3.5 kmh 29.60 in1002.4 mb 0.00 in0.0 mm 0.00 in0.0 mm 0.00 in0.0 mm
06:29 AM 79.7°F26.5°C 66.0°F18.9°C 63% 0.7 mph NW1.1 kmh NW 1.6 mph2.6 kmh 29.61 in1002.7 mb 0.00 in0.0 mm 0.00 in0.0 mm 0.00 in0.0 mm
06:28 AM 79.7°F26.5°C 66.0°F18.9°C 63% Calm Calm 1.6 mph2.6 kmh 29.60 in1002.4 mb 0.00 in0.0 mm 0.00 in0.0 mm 0.00 in0.0 mm
06:27 AM 79.7°F26.5°C 66.0°F18.9°C 63% Calm Calm 2.2 mph3.5 kmh 29.60 in1002.4 mb 0.00 in0.0 mm 0.00 in0.0 mm 0.00 in0.0 mm
06:26 AM 79.7°F26.5°C 66.0°F18.9°C 63% 0.7 mph W1.1 kmh W 2.2 mph3.5 kmh 29.60 in1002.4 mb 0.00 in0.0 mm 0.00 in0.0 mm 0.00 in0.0 mm
06:25 AM 79.9°F26.6°C 65.7°F18.7°C 62% 1.6 mph W2.6 kmh W 3.1 mph5.0 kmh 29.60 in1002.4 mb 0.00 in0.0 mm 0.00 in0.0 mm 0.00 in0.0 mm
06:23 AM 79.9°F26.6°C 66.2°F19.0°C 63% 0.7 mph W1.1 kmh W 2.2 mph3.5 kmh 29.60 in1002.4 mb 0.00 in0.0 mm 0.00 in0.0 mm 0.00 in0.0 mm
06:22 AM 79.9°F26.6°C 65.7°F18.7°C 62% 0.7 mph W1.1 kmh W 2.2 mph3.5 kmh 29.60 in1002.4 mb 0.00 in0.0 mm 0.00 in0.0 mm 0.00 in0.0 mm
06:21 AM 79.9°F26.6°C 65.7°F18.7°C 62% 1.6 mph W2.6 kmh W 2.2 mph3.5 kmh 29.60 in1002.4 mb 0.00 in0.0 mm 0.00 in0.0 mm 0.00 in0.0 mm
06:20 AM 79.9°F26.6°C 65.7°F18.7°C 62% 0.7 mph W1.1 kmh W 1.6 mph2.6 kmh 29.61 in1002.7 mb 0.00 in0.0 mm 0.00 in0.0 mm 0.00 in0.0 mm
06:19 AM 80.1°F26.7°C 65.8°F18.8°C 62% Calm Calm 0.7 mph1.1 kmh 29.60 in1002.4 mb 0.00 in0.0 mm 0.00 in0.0 mm 0.00 in0.0 mm
06:17 AM 80.1°F26.7°C 65.8°F18.8°C 62% Calm Calm 1.6 mph2.6 kmh 29.60 in1002.4 mb 0.00 in0.0 mm 0.00 in0.0 mm 0.00 in0.0 mm
06:16 AM 80.1°F26.7°C 65.8°F18.8°C 62% Calm Calm 2.2 mph3.5 kmh 29.60 in1002.4 mb 0.00 in0.0 mm 0.00 in0.0 mm 0.00 in0.0 mm
06:15 AM 80.1°F26.7°C 65.8°F18.8°C 62% Calm Calm 3.1 mph5.0 kmh 29.60 in1002.4 mb 0.00 in0.0 mm 0.00 in0.0 mm 0.00 in0.0 mm
06:14 AM 80.1°F26.7°C 65.8°F18.8°C 62% 1.6 mph W2.6 kmh W 2.2 mph3.5 kmh 29.60 in1002.4 mb 0.00 in0.0 mm 0.00 in0.0 mm 0.00 in0.0 mm
06:13 AM 80.1°F26.7°C 65.8°F18.8°C 62% 0.7 mph SW1.1 kmh SW 2.2 mph3.5 kmh 29.60 in1002.4 mb 0.00 in0.0 mm 0.00 in0.0 mm 0.00 in0.0 mm
06:12 AM 80.1°F26.7°C 65.8°F18.8°C 62% 0.7 mph W1.1 kmh W 1.6 mph2.6 kmh 29.60 in1002.4 mb 0.00 in0.0 mm 0.00 in0.0 mm 0.00 in0.0 mm
06:10 AM 80.2°F26.8°C 66.0°F18.9°C 62% 0.7 mph W1.1 kmh W 2.2 mph3.5 kmh 29.60 in1002.4 mb 0.00 in0.0 mm 0.00 in0.0 mm 0.00 in0.0 mm
06:09 AM 80.2°F26.8°C 66.0°F18.9°C 62% 1.6 mph WNW2.6 kmh WNW 2.2 mph3.5 kmh 29.60 in1002.4 mb 0.00 in0.0 mm 0.00 in0.0 mm 0.00 in0.0 mm
06:08 AM 80.2°F26.8°C 66.0°F18.9°C 62% 0.7 mph WNW1.1 kmh WNW 1.6 mph2.6 kmh 29.59 in1002.0 mb 0.00 in0.0 mm 0.00 in0.0 mm 0.00 in0.0 mm
06:07 AM 80.2°F26.8°C 66.0°F18.9°C 62% 0.7 mph W1.1 kmh W 1.6 mph2.6 kmh 29.60 in1002.4 mb 0.00 in0.0 mm 0.00 in0.0 mm 0.00 in0.0 mm
06:06 AM 80.2°F26.8°C 65.5°F18.6°C 61% 0.7 mph NW1.1 kmh NW 1.6 mph2.6 kmh 29.60 in1002.4 mb 0.00 in0.0 mm 0.00 in0.0 mm 0.00 in0.0 mm
06:05 AM 80.2°F26.8°C 66.0°F18.9°C 62% 0.7 mph NW1.1 kmh NW 2.2 mph3.5 kmh 29.60 in1002.4 mb 0.00 in0.0 mm 0.00 in0.0 mm 0.00 in0.0 mm
06:03 AM 80.2°F26.8°C 66.0°F18.9°C 62% 0.7 mph W1.1 kmh W 1.6 mph2.6 kmh 29.59 in1002.0 mb 0.00 in0.0 mm 0.00 in0.0 mm 0.00 in0.0 mm
06:02 AM 80.2°F26.8°C 66.0°F18.9°C 62% 0.7 mph NW1.1 kmh NW 2.2 mph3.5 kmh 29.59 in1002.0 mb 0.00 in0.0 mm 0.00 in0.0 mm 0.00 in0.0 mm
06:01 AM 80.2°F26.8°C 65.5°F18.6°C 61% 0.7 mph NW1.1 kmh NW 3.1 mph5.0 kmh 29.59 in1002.0 mb 0.00 in0.0 mm 0.00 in0.0 mm 0.00 in0.0 mm
06:00 AM 80.2°F26.8°C 65.5°F18.6°C 61% 1.6 mph NW2.6 kmh NW 3.1 mph5.0 kmh 29.59 in1002.0 mb 0.00 in0.0 mm 0.00 in0.0 mm 0.00 in0.0 mm
05:59 AM 80.2°F26.8°C 66.0°F18.9°C 62% 1.6 mph SW2.6 kmh SW 3.1 mph5.0 kmh 29.59 in1002.0 mb 0.00 in0.0 mm 0.00 in0.0 mm 0.00 in0.0 mm
05:58 AM 80.2°F26.8°C 66.0°F18.9°C 62% 1.6 mph W2.6 kmh W 3.1 mph5.0 kmh 29.59 in1002.0 mb 0.00 in0.0 mm 0.00 in0.0 mm 0.00 in0.0 mm
05:56 AM 80.2°F26.8°C 66.0°F18.9°C 62% 1.6 mph W2.6 kmh W 2.2 mph3.5 kmh 29.59 in1002.0 mb 0.00 in0.0 mm 0.00 in0.0 mm 0.00 in0.0 mm
05:55 AM 80.2°F26.8°C 66.0°F18.9°C 62% Calm Calm 2.2 mph3.5 kmh 29.59 in1002.0 mb 0.00 in0.0 mm 0.00 in0.0 mm 0.00 in0.0 mm
05:54 AM 80.2°F26.8°C 66.0°F18.9°C 62% 0.7 mph NW1.1 kmh NW 2.2 mph3.5 kmh 29.59 in1002.0 mb 0.00 in0.0 mm 0.00 in0.0 mm 0.00 in0.0 mm
05:53 AM 80.4°F26.9°C 66.2°F19.0°C 62% 1.6 mph W2.6 kmh W 2.2 mph3.5 kmh 29.59 in1002.0 mb 0.00 in0.0 mm 0.00 in0.0 mm 0.00 in0.0 mm
05:52 AM 80.2°F26.8°C 66.0°F18.9°C 62% 0.7 mph W1.1 kmh W 2.2 mph3.5 kmh 29.58 in1001.7 mb 0.00 in0.0 mm 0.00 in0.0 mm 0.00 in0.0 mm
05:50 AM 80.2°F26.8°C 66.0°F18.9°C 62% 0.7 mph NW1.1 kmh NW 2.2 mph3.5 kmh 29.58 in1001.7 mb 0.00 in0.0 mm 0.00 in0.0 mm 0.00 in0.0 mm
05:49 AM 80.2°F26.8°C 66.0°F18.9°C 62% 0.7 mph W1.1 kmh W 1.6 mph2.6 kmh 29.58 in1001.7 mb 0.00 in0.0 mm 0.00 in0.0 mm 0.00 in0.0 mm
05:48 AM 80.4°F26.9°C 66.2°F19.0°C 62% Calm Calm 1.6 mph2.6 kmh 29.58 in1001.7 mb 0.00 in0.0 mm 0.00 in0.0 mm 0.00 in0.0 mm
05:47 AM 80.4°F26.9°C 66.2°F19.0°C 62% 0.7 mph W1.1 kmh W 2.2 mph3.5 kmh 29.58 in1001.7 mb 0.00 in0.0 mm 0.00 in0.0 mm 0.00 in0.0 mm
05:46 AM 80.4°F26.9°C 66.7°F19.3°C 63% 1.6 mph W2.6 kmh W 2.2 mph3.5 kmh 29.58 in1001.7 mb 0.00 in0.0 mm 0.00 in0.0 mm 0.00 in0.0 mm
05:45 AM 80.4°F26.9°C 66.7°F19.3°C 63% 1.6 mph W2.6 kmh W 3.1 mph5.0 kmh 29.58 in1001.7 mb 0.00 in0.0 mm 0.00 in0.0 mm 0.00 in0.0 mm
05:43 AM 80.4°F26.9°C 67.1°F19.5°C 64% 0.7 mph W1.1 kmh W 3.1 mph5.0 kmh 29.58 in1001.7 mb 0.00 in0.0 mm 0.00 in0.0 mm 0.00 in0.0 mm
05:42 AM 80.6°F27.0°C 67.3°F19.6°C 64% 0.7 mph W1.1 kmh W 3.1 mph5.0 kmh 29.58 in1001.7 mb 0.00 in0.0 mm 0.00 in0.0 mm 0.00 in0.0 mm
05:41 AM 80.6°F27.0°C 67.3°F19.6°C 64% Calm Calm 3.1 mph5.0 kmh 29.58 in1001.7 mb 0.00 in0.0 mm 0.00 in0.0 mm 0.00 in0.0 mm
05:40 AM 80.6°F27.0°C 67.3°F19.6°C 64% 0.7 mph W1.1 kmh W 3.1 mph5.0 kmh 29.58 in1001.7 mb 0.00 in0.0 mm 0.00 in0.0 mm 0.00 in0.0 mm
05:39 AM 80.6°F27.0°C 67.3°F19.6°C 64% Calm Calm 1.6 mph2.6 kmh 29.58 in1001.7 mb 0.00 in0.0 mm 0.00 in0.0 mm 0.00 in0.0 mm
05:38 AM 80.6°F27.0°C 67.3°F19.6°C 64% Calm Calm 1.6 mph2.6 kmh 29.58 in1001.7 mb 0.00 in0.0 mm 0.00 in0.0 mm 0.00 in0.0 mm
05:36 AM 80.8°F27.1°C 67.5°F19.7°C 64% Calm Calm 0.7 mph1.1 kmh 29.57 in1001.4 mb 0.00 in0.0 mm 0.00 in0.0 mm 0.00 in0.0 mm
05:35 AM 80.8°F27.1°C 67.5°F19.7°C 64% Calm Calm 1.6 mph2.6 kmh 29.57 in1001.4 mb 0.00 in0.0 mm 0.00 in0.0 mm 0.00 in0.0 mm
05:34 AM 80.8°F27.1°C 67.5°F19.7°C 64% 0.7 mph W1.1 kmh W 2.2 mph3.5 kmh 29.57 in1001.4 mb 0.00 in0.0 mm 0.00 in0.0 mm 0.00 in0.0 mm
05:33 AM 80.8°F27.1°C 67.5°F19.7°C 64% 0.7 mph W1.1 kmh W 1.6 mph2.6 kmh 29.57 in1001.4 mb 0.00 in0.0 mm 0.00 in0.0 mm 0.00 in0.0 mm
05:32 AM 80.8°F27.1°C 67.5°F19.7°C 64% Calm Calm 0.7 mph1.1 kmh 29.57 in1001.4 mb 0.00 in0.0 mm 0.00 in0.0 mm 0.00 in0.0 mm
05:31 AM 80.8°F27.1°C 67.5°F19.7°C 64% Calm Calm 0.7 mph1.1 kmh 29.57 in1001.4 mb 0.00 in0.0 mm 0.00 in0.0 mm 0.00 in0.0 mm
05:29 AM 80.8°F27.1°C 67.5°F19.7°C 64% Calm Calm -- 29.57 in1001.4 mb 0.00 in0.0 mm 0.00 in0.0 mm 0.00 in0.0 mm
05:28 AM 80.8°F27.1°C 67.5°F19.7°C 64% Calm Calm 0.7 mph1.1 kmh 29.57 in1001.4 mb 0.00 in0.0 mm 0.00 in0.0 mm 0.00 in0.0 mm
05:27 AM 81.0°F27.2°C 67.6°F19.8°C 64% Calm Calm 1.6 mph2.6 kmh 29.57 in1001.4 mb 0.00 in0.0 mm 0.00 in0.0 mm 0.00 in0.0 mm
05:26 AM 81.0°F27.2°C 67.6°F19.8°C 64% 0.7 mph 1.1 kmh 1.6 mph2.6 kmh 29.57 in1001.4 mb 0.00 in0.0 mm 0.00 in0.0 mm 0.00 in0.0 mm
05:25 AM 81.0°F27.2°C 67.6°F19.8°C 64% 0.7 mph 1.1 kmh 3.1 mph5.0 kmh 29.57 in1001.4 mb 0.00 in0.0 mm 0.00 in0.0 mm 0.00 in0.0 mm
05:23 AM 81.0°F27.2°C 67.6°F19.8°C 64% 1.6 mph W2.6 kmh W 3.1 mph5.0 kmh 29.57 in1001.4 mb 0.00 in0.0 mm 0.00 in0.0 mm 0.00 in0.0 mm
05:22 AM 81.0°F27.2°C 67.6°F19.8°C 64% 1.6 mph NW2.6 kmh NW 3.1 mph5.0 kmh 29.56 in1001.0 mb 0.00 in0.0 mm 0.00 in0.0 mm 0.00 in0.0 mm
05:21 AM 81.0°F27.2°C 67.6°F19.8°C 64% 1.6 mph NW2.6 kmh NW 3.1 mph5.0 kmh 29.56 in1001.0 mb 0.00 in0.0 mm 0.00 in0.0 mm 0.00 in0.0 mm
05:20 AM 81.1°F27.3°C 67.8°F19.9°C 64% 0.7 mph W1.1 kmh W 3.8 mph6.1 kmh 29.56 in1001.0 mb 0.00 in0.0 mm 0.00 in0.0 mm 0.00 in0.0 mm
05:19 AM 81.1°F27.3°C 67.8°F19.9°C 64% 1.6 mph 2.6 kmh 4.5 mph7.2 kmh 29.56 in1001.0 mb 0.00 in0.0 mm 0.00 in0.0 mm 0.00 in0.0 mm
05:18 AM 81.1°F27.3°C 68.2°F20.1°C 65% 1.6 mph W2.6 kmh W 4.5 mph7.2 kmh 29.56 in1001.0 mb 0.00 in0.0 mm 0.00 in0.0 mm 0.00 in0.0 mm
05:16 AM 81.3°F27.4°C 68.4°F20.2°C 65% 1.6 mph SW2.6 kmh SW 3.1 mph5.0 kmh 29.56 in1001.0 mb 0.00 in0.0 mm 0.00 in0.0 mm 0.00 in0.0 mm
05:15 AM 81.3°F27.4°C 68.4°F20.2°C 65% 0.7 mph NW1.1 kmh NW 3.1 mph5.0 kmh 29.56 in1001.0 mb 0.00 in0.0 mm 0.00 in0.0 mm 0.00 in0.0 mm
05:14 AM 81.3°F27.4°C 68.4°F20.2°C 65% 0.7 mph W1.1 kmh W 1.6 mph2.6 kmh 29.56 in1001.0 mb 0.00 in0.0 mm 0.00 in0.0 mm 0.00 in0.0 mm
05:13 AM 81.3°F27.4°C 68.4°F20.2°C 65% Calm Calm 2.2 mph3.5 kmh 29.56 in1001.0 mb 0.00 in0.0 mm 0.00 in0.0 mm 0.00 in0.0 mm
05:12 AM 81.5°F27.5°C 68.5°F20.3°C 65% 0.7 mph W1.1 kmh W 2.2 mph3.5 kmh 29.56 in1001.0 mb 0.00 in0.0 mm 0.00 in0.0 mm 0.00 in0.0 mm
05:11 AM 81.5°F27.5°C 68.5°F20.3°C 65% Calm Calm 2.2 mph3.5 kmh 29.56 in1001.0 mb 0.00 in0.0 mm 0.00 in0.0 mm 0.00 in0.0 mm
05:09 AM 81.5°F27.5°C 68.5°F20.3°C 65% 0.7 mph W1.1 kmh W 2.2 mph3.5 kmh 29.56 in1001.0 mb 0.00 in0.0 mm 0.00 in0.0 mm 0.00 in0.0 mm
05:08 AM 81.7°F27.6°C 68.4°F20.2°C 64% 0.7 mph NW1.1 kmh NW 2.2 mph3.5 kmh 29.56 in1001.0 mb 0.00 in0.0 mm 0.00 in0.0 mm 0.00 in0.0 mm
05:07 AM 81.7°F27.6°C 68.7°F20.4°C 65% 0.7 mph NW1.1 kmh NW 2.2 mph3.5 kmh 29.56 in1001.0 mb 0.00 in0.0 mm 0.00 in0.0 mm 0.00 in0.0 mm
05:06 AM 81.9°F27.7°C 68.5°F20.3°C 64% 0.7 mph W1.1 kmh W 2.2 mph3.5 kmh 29.56 in1001.0 mb 0.00 in0.0 mm 0.00 in0.0 mm 0.00 in0.0 mm
05:05 AM 81.9°F27.7°C 68.5°F20.3°C 64% 0.7 mph NW1.1 kmh NW 2.2 mph3.5 kmh 29.55 in1000.7 mb 0.00 in0.0 mm 0.00 in0.0 mm 0.00 in0.0 mm
05:03 AM 81.9°F27.7°C 68.9°F20.5°C 65% 0.7 mph NW1.1 kmh NW 2.2 mph3.5 kmh 29.56 in1001.0 mb 0.00 in0.0 mm 0.00 in0.0 mm 0.00 in0.0 mm
05:02 AM 81.9°F27.7°C 68.5°F20.3°C 64% 0.7 mph W1.1 kmh W 2.2 mph3.5 kmh 29.56 in1001.0 mb 0.00 in0.0 mm 0.00 in0.0 mm 0.00 in0.0 mm
05:01 AM 82.0°F27.8°C 68.7°F20.4°C 64% 0.7 mph NW1.1 kmh NW 1.6 mph2.6 kmh 29.56 in1001.0 mb 0.00 in0.0 mm 0.00 in0.0 mm 0.00 in0.0 mm
05:00 AM 82.0°F27.8°C 68.7°F20.4°C 64% Calm Calm 1.6 mph2.6 kmh 29.55 in1000.7 mb 0.00 in0.0 mm 0.00 in0.0 mm 0.00 in0.0 mm
04:59 AM 82.0°F27.8°C 68.7°F20.4°C 64% 0.7 mph NW1.1 kmh NW 1.6 mph2.6 kmh 29.55 in1000.7 mb 0.00 in0.0 mm 0.00 in0.0 mm 0.00 in0.0 mm
04:58 AM 82.2°F27.9°C 68.9°F20.5°C 64% 0.7 mph NW1.1 kmh NW 2.2 mph3.5 kmh 29.55 in1000.7 mb 0.00 in0.0 mm 0.00 in0.0 mm 0.00 in0.0 mm
04:56 AM 82.2°F27.9°C 68.9°F20.5°C 64% 1.6 mph NW2.6 kmh NW 3.1 mph5.0 kmh 29.55 in1000.7 mb 0.00 in0.0 mm 0.00 in0.0 mm 0.00 in0.0 mm
04:55 AM 82.2°F27.9°C 68.9°F20.5°C 64% 1.6 mph 2.6 kmh 2.2 mph3.5 kmh 29.55 in1000.7 mb 0.00 in0.0 mm 0.00 in0.0 mm 0.00 in0.0 mm
04:54 AM 82.4°F28.0°C 69.1°F20.6°C 64% 1.6 mph NW2.6 kmh NW 2.2 mph3.5 kmh 29.55 in1000.7 mb 0.00 in0.0 mm 0.00 in0.0 mm 0.00 in0.0 mm
04:53 AM 82.4°F28.0°C 69.1°F20.6°C 64% 0.7 mph NW1.1 kmh NW 2.2 mph3.5 kmh 29.55 in1000.7 mb 0.00 in0.0 mm 0.00 in0.0 mm 0.00 in0.0 mm
04:52 AM 82.4°F28.0°C 69.1°F20.6°C 64% Calm Calm 3.1 mph5.0 kmh 29.56 in1001.0 mb 0.00 in0.0 mm 0.00 in0.0 mm 0.00 in0.0 mm
04:51 AM 82.4°F28.0°C 69.1°F20.6°C 64% 0.7 mph NW1.1 kmh NW 3.1 mph5.0 kmh 29.55 in1000.7 mb 0.00 in0.0 mm 0.00 in0.0 mm 0.00 in0.0 mm
04:49 AM 82.6°F28.1°C 69.1°F20.6°C 64% 0.7 mph 1.1 kmh 2.2 mph3.5 kmh 29.56 in1001.0 mb 0.00 in0.0 mm 0.00 in0.0 mm 0.00 in0.0 mm
04:48 AM 82.6°F28.1°C 69.1°F20.6°C 64% 0.7 mph NW1.1 kmh NW 2.2 mph3.5 kmh 29.55 in1000.7 mb 0.00 in0.0 mm 0.00 in0.0 mm 0.00 in0.0 mm
04:47 AM 82.8°F28.2°C 69.3°F20.7°C 64% 0.7 mph NW1.1 kmh NW 3.1 mph5.0 kmh 29.55 in1000.7 mb 0.00 in0.0 mm 0.00 in0.0 mm 0.00 in0.0 mm
04:46 AM 82.6°F28.1°C 69.1°F20.6°C 64% 1.6 mph 2.6 kmh 3.1 mph5.0 kmh 29.55 in1000.7 mb 0.00 in0.0 mm 0.00 in0.0 mm 0.00 in0.0 mm
04:45 AM 82.8°F28.2°C 69.3°F20.7°C 64% 0.7 mph 1.1 kmh 1.6 mph2.6 kmh 29.55 in1000.7 mb 0.00 in0.0 mm 0.00 in0.0 mm 0.00 in0.0 mm
04:44 AM 82.8°F28.2°C 69.3°F20.7°C 64% 0.7 mph NW1.1 kmh NW 2.2 mph3.5 kmh 29.55 in1000.7 mb 0.00 in0.0 mm 0.00 in0.0 mm 0.00 in0.0 mm
04:42 AM 82.9°F28.3°C 69.1°F20.6°C 63% 0.7 mph 1.1 kmh 3.1 mph5.0 kmh 29.55 in1000.7 mb 0.00 in0.0 mm 0.00 in0.0 mm 0.00 in0.0 mm
04:41 AM 82.9°F28.3°C 69.4°F20.8°C 64% 1.6 mph 2.6 kmh 3.1 mph5.0 kmh 29.55 in1000.7 mb 0.00 in0.0 mm 0.00 in0.0 mm 0.00 in0.0 mm
04:40 AM 82.9°F28.3°C 69.4°F20.8°C 64% 1.6 mph 2.6 kmh 3.8 mph6.1 kmh 29.55 in1000.7 mb 0.00 in0.0 mm 0.00 in0.0 mm 0.00 in0.0 mm
04:39 AM 83.1°F28.4°C 69.3°F20.7°C 63% 2.2 mph NW3.5 kmh NW 3.8 mph6.1 kmh 29.55 in1000.7 mb 0.00 in0.0 mm 0.00 in0.0 mm 0.00 in0.0 mm
04:38 AM 83.1°F28.4°C 69.3°F20.7°C 63% 1.6 mph 2.6 kmh 4.5 mph7.2 kmh 29.55 in1000.7 mb 0.00 in0.0 mm 0.00 in0.0 mm 0.00 in0.0 mm
04:36 AM 83.1°F28.4°C 69.3°F20.7°C 63% 2.2 mph NW3.5 kmh NW 3.8 mph6.1 kmh 29.55 in1000.7 mb 0.00 in0.0 mm 0.00 in0.0 mm 0.00 in0.0 mm
04:35 AM 83.1°F28.4°C 69.3°F20.7°C 63% 1.6 mph NW2.6 kmh NW 3.8 mph6.1 kmh 29.55 in1000.7 mb 0.00 in0.0 mm 0.00 in0.0 mm 0.00 in0.0 mm
04:34 AM 83.1°F28.4°C 69.3°F20.7°C 63% 1.6 mph 2.6 kmh 3.8 mph6.1 kmh 29.55 in1000.7 mb 0.00 in0.0 mm 0.00 in0.0 mm 0.00 in0.0 mm
04:33 AM 83.3°F28.5°C 69.4°F20.8°C 63% 0.7 mph NW1.1 kmh NW 5.4 mph8.7 kmh 29.55 in1000.7 mb 0.00 in0.0 mm 0.00 in0.0 mm 0.00 in0.0 mm
04:32 AM 83.5°F28.6°C 69.6°F20.9°C 63% 1.6 mph NW2.6 kmh NW 3.8 mph6.1 kmh 29.55 in1000.7 mb 0.00 in0.0 mm 0.00 in0.0 mm 0.00 in0.0 mm
04:31 AM 83.3°F28.5°C 68.9°F20.5°C 62% 1.6 mph NE2.6 kmh NE 3.8 mph6.1 kmh 29.55 in1000.7 mb 0.00 in0.0 mm 0.00 in0.0 mm 0.00 in0.0 mm
04:29 AM 83.5°F28.6°C 69.1°F20.6°C 62% 0.7 mph E1.1 kmh E 3.1 mph5.0 kmh 29.55 in1000.7 mb 0.00 in0.0 mm 0.00 in0.0 mm 0.00 in0.0 mm
04:28 AM 83.5°F28.6°C 69.1°F20.6°C 62% 0.7 mph NE1.1 kmh NE 3.8 mph6.1 kmh 29.55 in1000.7 mb 0.00 in0.0 mm 0.00 in0.0 mm 0.00 in0.0 mm
04:27 AM 83.5°F28.6°C 69.1°F20.6°C 62% 1.6 mph NW2.6 kmh NW 4.5 mph7.2 kmh 29.55 in1000.7 mb 0.00 in0.0 mm 0.00 in0.0 mm 0.00 in0.0 mm
04:26 AM 83.5°F28.6°C 68.5°F20.3°C 61% 1.6 mph E2.6 kmh E 3.1 mph5.0 kmh 29.55 in1000.7 mb 0.00 in0.0 mm 0.00 in0.0 mm 0.00 in0.0 mm
04:25 AM 83.7°F28.7°C 68.7°F20.4°C 61% 0.7 mph E1.1 kmh E 4.5 mph7.2 kmh 29.55 in1000.7 mb 0.00 in0.0 mm 0.00 in0.0 mm 0.00 in0.0 mm
04:24 AM 83.7°F28.7°C 68.7°F20.4°C 61% 2.2 mph NE3.5 kmh NE 5.4 mph8.7 kmh 29.55 in1000.7 mb 0.00 in0.0 mm 0.00 in0.0 mm 0.00 in0.0 mm
04:22 AM 83.7°F28.7°C 68.7°F20.4°C 61% 2.2 mph NE3.5 kmh NE 5.4 mph8.7 kmh 29.55 in1000.7 mb 0.00 in0.0 mm 0.00 in0.0 mm 0.00 in0.0 mm
04:21 AM 83.7°F28.7°C 68.7°F20.4°C 61% 2.2 mph NE3.5 kmh NE 5.4 mph8.7 kmh 29.56 in1001.0 mb 0.00 in0.0 mm 0.00 in0.0 mm 0.00 in0.0 mm
04:20 AM 83.8°F28.8°C 68.9°F20.5°C 61% 2.2 mph E3.5 kmh E 5.4 mph8.7 kmh 29.56 in1001.0 mb 0.00 in0.0 mm 0.00 in0.0 mm 0.00 in0.0 mm
04:19 AM 83.8°F28.8°C 68.9°F20.5°C 61% 2.2 mph E3.5 kmh E 6.0 mph9.7 kmh 29.56 in1001.0 mb 0.00 in0.0 mm 0.00 in0.0 mm 0.00 in0.0 mm
04:18 AM 83.8°F28.8°C 68.9°F20.5°C 61% 0.7 mph NW1.1 kmh NW 4.5 mph7.2 kmh 29.56 in1001.0 mb 0.00 in0.0 mm 0.00 in0.0 mm 0.00 in0.0 mm
04:16 AM 84.0°F28.9°C 69.1°F20.6°C 61% 2.2 mph E3.5 kmh E 4.5 mph7.2 kmh 29.55 in1000.7 mb 0.00 in0.0 mm 0.00 in0.0 mm 0.00 in0.0 mm
04:15 AM 84.0°F28.9°C 69.1°F20.6°C 61% 0.7 mph E1.1 kmh E 3.8 mph6.1 kmh 29.55 in1000.7 mb 0.00 in0.0 mm 0.00 in0.0 mm 0.00 in0.0 mm
04:14 AM 84.0°F28.9°C 69.1°F20.6°C 61% 1.6 mph 2.6 kmh 5.4 mph8.7 kmh 29.55 in1000.7 mb 0.00 in0.0 mm 0.00 in0.0 mm 0.00 in0.0 mm
04:13 AM 84.0°F28.9°C 69.1°F20.6°C 61% 2.2 mph ESE3.5 kmh ESE 5.4 mph8.7 kmh 29.55 in1000.7 mb 0.00 in0.0 mm 0.00 in0.0 mm 0.00 in0.0 mm
04:12 AM 84.2°F29.0°C 68.7°F20.4°C 60% 2.2 mph NE3.5 kmh NE 6.0 mph9.7 kmh 29.55 in1000.7 mb 0.00 in0.0 mm 0.00 in0.0 mm 0.00 in0.0 mm
04:11 AM 84.2°F29.0°C 68.7°F20.4°C 60% 1.6 mph E2.6 kmh E 5.4 mph8.7 kmh 29.55 in1000.7 mb 0.00 in0.0 mm 0.00 in0.0 mm 0.00 in0.0 mm
04:09 AM 84.2°F29.0°C 68.7°F20.4°C 60% 1.6 mph E2.6 kmh E 5.4 mph8.7 kmh 29.55 in1000.7 mb 0.00 in0.0 mm 0.00 in0.0 mm 0.00 in0.0 mm
04:08 AM 84.4°F29.1°C 68.9°F20.5°C 60% 1.6 mph NE2.6 kmh NE 3.8 mph6.1 kmh 29.55 in1000.7 mb 0.00 in0.0 mm 0.00 in0.0 mm 0.00 in0.0 mm
04:07 AM 84.2°F29.0°C 68.7°F20.4°C 60% Calm Calm 5.4 mph8.7 kmh 29.55 in1000.7 mb 0.00 in0.0 mm 0.00 in0.0 mm 0.00 in0.0 mm
04:06 AM 84.4°F29.1°C 68.9°F20.5°C 60% 2.2 mph E3.5 kmh E 5.4 mph8.7 kmh 29.55 in1000.7 mb 0.00 in0.0 mm 0.00 in0.0 mm 0.00 in0.0 mm
04:05 AM 84.4°F29.1°C 68.9°F20.5°C 60% 1.6 mph E2.6 kmh E 4.5 mph7.2 kmh 29.55 in1000.7 mb 0.00 in0.0 mm 0.00 in0.0 mm 0.00 in0.0 mm
04:04 AM 84.4°F29.1°C 68.5°F20.3°C 59% 2.2 mph NE3.5 kmh NE 4.5 mph7.2 kmh 29.55 in1000.7 mb 0.00 in0.0 mm 0.00 in0.0 mm 0.00 in0.0 mm
04:02 AM 84.4°F29.1°C 68.5°F20.3°C 59% 0.7 mph NE1.1 kmh NE 3.8 mph6.1 kmh 29.55 in1000.7 mb 0.00 in0.0 mm 0.00 in0.0 mm 0.00 in0.0 mm
04:01 AM 84.4°F29.1°C 68.5°F20.3°C 59% 0.7 mph E1.1 kmh E 3.8 mph6.1 kmh 29.55 in1000.7 mb 0.00 in0.0 mm 0.00 in0.0 mm 0.00 in0.0 mm
04:00 AM 84.6°F29.2°C 68.7°F20.4°C 59% 2.2 mph 3.5 kmh 3.8 mph6.1 kmh 29.55 in1000.7 mb 0.00 in0.0 mm 0.00 in0.0 mm 0.00 in0.0 mm
03:59 AM 84.6°F29.2°C 68.7°F20.4°C 59% 2.2 mph NNW3.5 kmh NNW 5.4 mph8.7 kmh 29.55 in1000.7 mb 0.00 in0.0 mm 0.00 in0.0 mm 0.00 in0.0 mm
03:58 AM 84.6°F29.2°C 68.7°F20.4°C 59% 1.6 mph NE2.6 kmh NE 5.4 mph8.7 kmh 29.55 in1000.7 mb 0.00 in0.0 mm 0.00 in0.0 mm 0.00 in0.0 mm
03:57 AM 84.6°F29.2°C 68.7°F20.4°C 59% 2.2 mph NE3.5 kmh NE 6.0 mph9.7 kmh 29.55 in1000.7 mb 0.00 in0.0 mm 0.00 in0.0 mm 0.00 in0.0 mm
03:55 AM 84.7°F29.3°C 68.9°F20.5°C 59% 2.2 mph 3.5 kmh 6.0 mph9.7 kmh 29.55 in1000.7 mb 0.00 in0.0 mm 0.00 in0.0 mm 0.00 in0.0 mm
03:54 AM 84.7°F29.3°C 68.9°F20.5°C 59% 1.6 mph NW2.6 kmh NW 4.5 mph7.2 kmh 29.55 in1000.7 mb 0.00 in0.0 mm 0.00 in0.0 mm 0.00 in0.0 mm
03:53 AM 84.7°F29.3°C 68.9°F20.5°C 59% 2.2 mph 3.5 kmh 6.9 mph11.1 kmh 29.55 in1000.7 mb 0.00 in0.0 mm 0.00 in0.0 mm 0.00 in0.0 mm
03:52 AM 84.7°F29.3°C 68.9°F20.5°C 59% 3.1 mph SE5.0 kmh SE 8.3 mph13.4 kmh 29.55 in1000.7 mb 0.00 in0.0 mm 0.00 in0.0 mm 0.00 in0.0 mm
03:51 AM 84.7°F29.3°C 68.9°F20.5°C 59% 1.6 mph NE2.6 kmh NE 5.4 mph8.7 kmh 29.56 in1001.0 mb 0.00 in0.0 mm 0.00 in0.0 mm 0.00 in0.0 mm
03:49 AM 84.7°F29.3°C 68.9°F20.5°C 59% 3.1 mph S5.0 kmh S 6.9 mph11.1 kmh 29.56 in1001.0 mb 0.00 in0.0 mm 0.00 in0.0 mm 0.00 in0.0 mm
03:48 AM 84.7°F29.3°C 68.9°F20.5°C 59% 3.1 mph SE5.0 kmh SE 6.9 mph11.1 kmh 29.56 in1001.0 mb 0.00 in0.0 mm 0.00 in0.0 mm 0.00 in0.0 mm
03:47 AM 84.7°F29.3°C 68.9°F20.5°C 59% 3.8 mph NE6.1 kmh NE 6.0 mph9.7 kmh 29.56 in1001.0 mb 0.00 in0.0 mm 0.00 in0.0 mm 0.00 in0.0 mm
03:46 AM 84.7°F29.3°C 68.9°F20.5°C 59% 2.2 mph E3.5 kmh E 6.0 mph9.7 kmh 29.56 in1001.0 mb 0.00 in0.0 mm 0.00 in0.0 mm 0.00 in0.0 mm
03:45 AM 84.7°F29.3°C 68.9°F20.5°C 59% 3.8 mph NE6.1 kmh NE 6.0 mph9.7 kmh 29.56 in1001.0 mb 0.00 in0.0 mm 0.00 in0.0 mm 0.00 in0.0 mm
03:44 AM 84.7°F29.3°C 68.9°F20.5°C 59% 3.1 mph NW5.0 kmh NW 6.9 mph11.1 kmh 29.56 in1001.0 mb 0.00 in0.0 mm 0.00 in0.0 mm 0.00 in0.0 mm
03:42 AM 84.7°F29.3°C 68.9°F20.5°C 59% 4.5 mph 7.2 kmh 6.9 mph11.1 kmh 29.56 in1001.0 mb 0.00 in0.0 mm 0.00 in0.0 mm 0.00 in0.0 mm
03:41 AM 84.7°F29.3°C 68.9°F20.5°C 59% 3.8 mph E6.1 kmh E 7.6 mph12.2 kmh 29.55 in1000.7 mb 0.00 in0.0 mm 0.00 in0.0 mm 0.00 in0.0 mm
03:40 AM 84.9°F29.4°C 68.9°F20.5°C 59% 3.8 mph E6.1 kmh E 6.0 mph9.7 kmh 29.56 in1001.0 mb 0.00 in0.0 mm 0.00 in0.0 mm 0.00 in0.0 mm
03:39 AM 84.7°F29.3°C 68.9°F20.5°C 59% 4.5 mph NE7.2 kmh NE 11.4 mph18.3 kmh 29.56 in1001.0 mb 0.00 in0.0 mm 0.00 in0.0 mm 0.00 in0.0 mm
03:38 AM 84.7°F29.3°C 69.3°F20.7°C 60% 5.4 mph 8.7 kmh 10.7 mph17.2 kmh 29.56 in1001.0 mb 0.00 in0.0 mm 0.00 in0.0 mm 0.00 in0.0 mm
03:37 AM 84.9°F29.4°C 69.4°F20.8°C 60% 2.2 mph E3.5 kmh E 6.9 mph11.1 kmh 29.56 in1001.0 mb 0.00 in0.0 mm 0.00 in0.0 mm 0.00 in0.0 mm
03:35 AM 84.9°F29.4°C 68.9°F20.5°C 59% 3.8 mph 6.1 kmh 7.6 mph12.2 kmh 29.56 in1001.0 mb 0.00 in0.0 mm 0.00 in0.0 mm 0.00 in0.0 mm
03:34 AM 84.9°F29.4°C 68.9°F20.5°C 59% 5.4 mph 8.7 kmh 9.2 mph14.8 kmh 29.56 in1001.0 mb 0.00 in0.0 mm 0.00 in0.0 mm 0.00 in0.0 mm
03:33 AM 84.7°F29.3°C 68.9°F20.5°C 59% 4.5 mph 7.2 kmh 9.2 mph14.8 kmh 29.56 in1001.0 mb 0.00 in0.0 mm 0.00 in0.0 mm 0.00 in0.0 mm
03:32 AM 84.7°F29.3°C 69.3°F20.7°C 60% 5.4 mph S8.7 kmh S 13.0 mph20.9 kmh 29.56 in1001.0 mb 0.00 in0.0 mm 0.00 in0.0 mm 0.00 in0.0 mm
03:31 AM 84.7°F29.3°C 69.3°F20.7°C 60% 6.0 mph NE9.7 kmh NE 13.0 mph20.9 kmh 29.56 in1001.0 mb 0.00 in0.0 mm 0.00 in0.0 mm 0.00 in0.0 mm
03:30 AM 84.9°F29.4°C 69.4°F20.8°C 60% 4.5 mph NE7.2 kmh NE 11.4 mph18.3 kmh 29.56 in1001.0 mb 0.00 in0.0 mm 0.00 in0.0 mm 0.00 in0.0 mm
03:28 AM 84.7°F29.3°C 69.3°F20.7°C 60% 4.5 mph 7.2 kmh 10.7 mph17.2 kmh 29.56 in1001.0 mb 0.00 in0.0 mm 0.00 in0.0 mm 0.00 in0.0 mm
03:27 AM 84.7°F29.3°C 69.3°F20.7°C 60% 6.0 mph NNE9.7 kmh NNE 10.7 mph17.2 kmh 29.56 in1001.0 mb 0.00 in0.0 mm 0.00 in0.0 mm 0.00 in0.0 mm
03:26 AM 84.9°F29.4°C 69.4°F20.8°C 60% 3.8 mph S6.1 kmh S 8.3 mph13.4 kmh 29.56 in1001.0 mb 0.00 in0.0 mm 0.00 in0.0 mm 0.00 in0.0 mm
03:25 AM 84.9°F29.4°C 69.4°F20.8°C 60% 6.0 mph NE9.7 kmh NE 8.3 mph13.4 kmh 29.56 in1001.0 mb 0.00 in0.0 mm 0.00 in0.0 mm 0.00 in0.0 mm
03:24 AM 84.9°F29.4°C 69.4°F20.8°C 60% 3.8 mph NE6.1 kmh NE 9.2 mph14.8 kmh 29.56 in1001.0 mb 0.00 in0.0 mm 0.00 in0.0 mm 0.00 in0.0 mm
03:22 AM 84.7°F29.3°C 69.3°F20.7°C 60% 3.1 mph E5.0 kmh E 8.3 mph13.4 kmh 29.56 in1001.0 mb 0.00 in0.0 mm 0.00 in0.0 mm 0.00 in0.0 mm
03:21 AM 84.7°F29.3°C 69.3°F20.7°C 60% 3.1 mph S5.0 kmh S 8.3 mph13.4 kmh 29.56 in1001.0 mb 0.00 in0.0 mm 0.00 in0.0 mm 0.00 in0.0 mm
03:20 AM 84.7°F29.3°C 69.3°F20.7°C 60% 4.5 mph NE7.2 kmh NE 10.7 mph17.2 kmh 29.56 in1001.0 mb 0.00 in0.0 mm 0.00 in0.0 mm 0.00 in0.0 mm
03:19 AM 84.7°F29.3°C 69.3°F20.7°C 60% 5.4 mph NE8.7 kmh NE -- 29.56 in1001.0 mb 0.00 in0.0 mm 0.00 in0.0 mm 0.00 in0.0 mm
03:16 AM 84.7°F29.3°C 69.3°F20.7°C 60% 3.8 mph NE6.1 kmh NE -- 29.56 in1001.0 mb 0.00 in0.0 mm 0.00 in0.0 mm 0.00 in0.0 mm
03:15 AM 84.7°F29.3°C 69.8°F21.0°C 61% 4.5 mph S7.2 kmh S 9.2 mph14.8 kmh 29.56 in1001.0 mb 0.00 in0.0 mm 0.00 in0.0 mm 0.00 in0.0 mm
03:13 AM 84.7°F29.3°C 69.3°F20.7°C 60% 5.4 mph E8.7 kmh E 11.4 mph18.3 kmh 29.56 in1001.0 mb 0.00 in0.0 mm 0.00 in0.0 mm 0.00 in0.0 mm
03:12 AM 84.9°F29.4°C 69.4°F20.8°C 60% 4.5 mph E7.2 kmh E 9.2 mph14.8 kmh 29.56 in1001.0 mb 0.00 in0.0 mm 0.00 in0.0 mm 0.00 in0.0 mm
03:11 AM 84.7°F29.3°C 69.3°F20.7°C 60% 4.5 mph NE7.2 kmh NE 9.8 mph15.8 kmh 29.57 in1001.4 mb 0.00 in0.0 mm 0.00 in0.0 mm 0.00 in0.0 mm
03:10 AM 84.9°F29.4°C 70.0°F21.1°C 61% 5.4 mph S8.7 kmh S 9.8 mph15.8 kmh 29.56 in1001.0 mb 0.00 in0.0 mm 0.00 in0.0 mm 0.00 in0.0 mm
03:09 AM 84.7°F29.3°C 69.8°F21.0°C 61% 3.8 mph NNW6.1 kmh NNW 9.2 mph14.8 kmh 29.56 in1001.0 mb 0.00 in0.0 mm 0.00 in0.0 mm 0.00 in0.0 mm
03:07 AM 84.9°F29.4°C 69.4°F20.8°C 60% 4.5 mph E7.2 kmh E 9.2 mph14.8 kmh 29.56 in1001.0 mb 0.00 in0.0 mm 0.00 in0.0 mm 0.00 in0.0 mm
03:06 AM 84.9°F29.4°C 69.4°F20.8°C 60% 3.8 mph NE6.1 kmh NE 7.6 mph12.2 kmh 29.57 in1001.4 mb 0.00 in0.0 mm 0.00 in0.0 mm 0.00 in0.0 mm
03:05 AM 84.9°F29.4°C 69.4°F20.8°C 60% 3.1 mph NE5.0 kmh NE 6.9 mph11.1 kmh 29.56 in1001.0 mb 0.00 in0.0 mm 0.00 in0.0 mm 0.00 in0.0 mm
03:04 AM 84.9°F29.4°C 69.4°F20.8°C 60% 3.8 mph NE6.1 kmh NE 8.3 mph13.4 kmh 29.57 in1001.4 mb 0.00 in0.0 mm 0.00 in0.0 mm 0.00 in0.0 mm
03:03 AM 85.1°F29.5°C 69.6°F20.9°C 60% 4.5 mph NE7.2 kmh NE 9.2 mph14.8 kmh 29.57 in1001.4 mb 0.00 in0.0 mm 0.00 in0.0 mm 0.00 in0.0 mm
03:02 AM 84.9°F29.4°C 69.4°F20.8°C 60% 4.5 mph E7.2 kmh E 9.2 mph14.8 kmh 29.57 in1001.4 mb 0.00 in0.0 mm 0.00 in0.0 mm 0.00 in0.0 mm
03:00 AM 85.1°F29.5°C 69.6°F20.9°C 60% 5.4 mph SSW8.7 kmh SSW 9.8 mph15.8 kmh 29.57 in1001.4 mb 0.00 in0.0 mm 0.00 in0.0 mm 0.00 in0.0 mm
02:59 AM 85.1°F29.5°C 69.6°F20.9°C 60% 5.4 mph NE8.7 kmh NE 7.6 mph12.2 kmh 29.56 in1001.0 mb 0.00 in0.0 mm 0.00 in0.0 mm 0.00 in0.0 mm
02:58 AM 85.1°F29.5°C 69.6°F20.9°C 60% 3.1 mph NE5.0 kmh NE 9.2 mph14.8 kmh 29.57 in1001.4 mb 0.00 in0.0 mm 0.00 in0.0 mm 0.00 in0.0 mm
02:57 AM 85.1°F29.5°C 69.6°F20.9°C 60% 4.5 mph NE7.2 kmh NE 9.2 mph14.8 kmh 29.57 in1001.4 mb 0.00 in0.0 mm 0.00 in0.0 mm 0.00 in0.0 mm
02:56 AM 85.1°F29.5°C 69.6°F20.9°C 60% 2.2 mph NE3.5 kmh NE 6.9 mph11.1 kmh 29.57 in1001.4 mb 0.00 in0.0 mm 0.00 in0.0 mm 0.00 in0.0 mm
02:55 AM 85.3°F29.6°C 69.8°F21.0°C 60% 2.2 mph ENE3.5 kmh ENE 6.9 mph11.1 kmh 29.57 in1001.4 mb 0.00 in0.0 mm 0.00 in0.0 mm 0.00 in0.0 mm
02:53 AM 85.3°F29.6°C 69.8°F21.0°C 60% 4.5 mph E7.2 kmh E 11.4 mph18.3 kmh 29.57 in1001.4 mb 0.00 in0.0 mm 0.00 in0.0 mm 0.00 in0.0 mm
02:52 AM 85.5°F29.7°C 70.0°F21.1°C 60% 4.5 mph E7.2 kmh E 11.4 mph18.3 kmh 29.57 in1001.4 mb 0.00 in0.0 mm 0.00 in0.0 mm 0.00 in0.0 mm
02:51 AM 85.3°F29.6°C 69.8°F21.0°C 60% 5.4 mph NE8.7 kmh NE 9.8 mph15.8 kmh 29.57 in1001.4 mb 0.00 in0.0 mm 0.00 in0.0 mm 0.00 in0.0 mm
02:50 AM 85.5°F29.7°C 70.0°F21.1°C 60% 4.5 mph NE7.2 kmh NE 9.8 mph15.8 kmh 29.57 in1001.4 mb 0.00 in0.0 mm 0.00 in0.0 mm 0.00 in0.0 mm
02:49 AM 85.5°F29.7°C 70.0°F21.1°C 60% 4.5 mph NE7.2 kmh NE 8.3 mph13.4 kmh 29.57 in1001.4 mb 0.00 in0.0 mm 0.00 in0.0 mm 0.00 in0.0 mm
02:47 AM 85.3°F29.6°C 69.8°F21.0°C 60% 3.8 mph NE6.1 kmh NE 10.7 mph17.2 kmh 29.57 in1001.4 mb 0.00 in0.0 mm 0.00 in0.0 mm 0.00 in0.0 mm
02:46 AM 85.5°F29.7°C 70.0°F21.1°C 60% 6.0 mph E9.7 kmh E 10.7 mph17.2 kmh 29.57 in1001.4 mb 0.00 in0.0 mm 0.00 in0.0 mm 0.00 in0.0 mm
02:45 AM 85.5°F29.7°C 69.4°F20.8°C 59% 3.8 mph E6.1 kmh E 8.3 mph13.4 kmh 29.57 in1001.4 mb 0.00 in0.0 mm 0.00 in0.0 mm 0.00 in0.0 mm
02:44 AM 85.6°F29.8°C 69.6°F20.9°C 59% 3.8 mph NE6.1 kmh NE 7.6 mph12.2 kmh 29.57 in1001.4 mb 0.00 in0.0 mm 0.00 in0.0 mm 0.00 in0.0 mm
02:43 AM 85.6°F29.8°C 69.6°F20.9°C 59% 2.2 mph 3.5 kmh 6.9 mph11.1 kmh 29.57 in1001.4 mb 0.00 in0.0 mm 0.00 in0.0 mm 0.00 in0.0 mm
02:42 AM 85.6°F29.8°C 69.6°F20.9°C 59% 3.8 mph NE6.1 kmh NE 6.9 mph11.1 kmh 29.57 in1001.4 mb 0.00 in0.0 mm 0.00 in0.0 mm 0.00 in0.0 mm
02:40 AM 85.6°F29.8°C 69.6°F20.9°C 59% 3.1 mph E5.0 kmh E 7.6 mph12.2 kmh 29.57 in1001.4 mb 0.00 in0.0 mm 0.00 in0.0 mm 0.00 in0.0 mm
02:39 AM 85.8°F29.9°C 69.8°F21.0°C 59% 2.2 mph NE3.5 kmh NE 6.0 mph9.7 kmh 29.57 in1001.4 mb 0.00 in0.0 mm 0.00 in0.0 mm 0.00 in0.0 mm
02:38 AM 85.8°F29.9°C 69.3°F20.7°C 58% 3.8 mph E6.1 kmh E 6.9 mph11.1 kmh 29.57 in1001.4 mb 0.00 in0.0 mm 0.00 in0.0 mm 0.00 in0.0 mm
02:37 AM 85.8°F29.9°C 69.3°F20.7°C 58% 3.8 mph NE6.1 kmh NE 7.6 mph12.2 kmh 29.57 in1001.4 mb 0.00 in0.0 mm 0.00 in0.0 mm 0.00 in0.0 mm
02:36 AM 85.8°F29.9°C 69.3°F20.7°C 58% 4.5 mph SE7.2 kmh SE 12.1 mph19.5 kmh 29.57 in1001.4 mb 0.00 in0.0 mm 0.00 in0.0 mm 0.00 in0.0 mm
02:35 AM 85.8°F29.9°C 69.3°F20.7°C 58% 6.0 mph NE9.7 kmh NE 12.1 mph19.5 kmh 29.57 in1001.4 mb 0.00 in0.0 mm 0.00 in0.0 mm 0.00 in0.0 mm
02:33 AM 85.8°F29.9°C 69.3°F20.7°C 58% 3.8 mph NE6.1 kmh NE 6.9 mph11.1 kmh 29.57 in1001.4 mb 0.00 in0.0 mm 0.00 in0.0 mm 0.00 in0.0 mm
02:32 AM 85.8°F29.9°C 69.3°F20.7°C 58% 3.1 mph NE5.0 kmh NE 10.7 mph17.2 kmh 29.57 in1001.4 mb 0.00 in0.0 mm 0.00 in0.0 mm 0.00 in0.0 mm
02:31 AM 85.8°F29.9°C 69.3°F20.7°C 58% 5.4 mph SE8.7 kmh SE 11.4 mph18.3 kmh 29.57 in1001.4 mb 0.00 in0.0 mm 0.00 in0.0 mm 0.00 in0.0 mm
02:30 AM 85.8°F29.9°C 69.3°F20.7°C 58% 6.0 mph NE9.7 kmh NE 11.4 mph18.3 kmh 29.57 in1001.4 mb 0.00 in0.0 mm 0.00 in0.0 mm 0.00 in0.0 mm
02:29 AM 85.8°F29.9°C 69.3°F20.7°C 58% 4.5 mph NE7.2 kmh NE 9.2 mph14.8 kmh 29.57 in1001.4 mb 0.00 in0.0 mm 0.00 in0.0 mm 0.00 in0.0 mm
02:28 AM 85.8°F29.9°C 69.3°F20.7°C 58% 4.5 mph NE7.2 kmh NE 9.8 mph15.8 kmh 29.57 in1001.4 mb 0.00 in0.0 mm 0.00 in0.0 mm 0.00 in0.0 mm
02:26 AM 85.8°F29.9°C 69.3°F20.7°C 58% 4.5 mph ENE7.2 kmh ENE 9.8 mph15.8 kmh 29.57 in1001.4 mb 0.00 in0.0 mm 0.00 in0.0 mm 0.00 in0.0 mm
02:25 AM 85.8°F29.9°C 69.3°F20.7°C 58% 3.1 mph NE5.0 kmh NE 9.2 mph14.8 kmh 29.57 in1001.4 mb 0.00 in0.0 mm 0.00 in0.0 mm 0.00 in0.0 mm
02:24 AM 85.8°F29.9°C 69.3°F20.7°C 58% 5.4 mph NE8.7 kmh NE 9.2 mph14.8 kmh 29.57 in1001.4 mb 0.00 in0.0 mm 0.00 in0.0 mm 0.00 in0.0 mm
02:23 AM 85.8°F29.9°C 69.3°F20.7°C 58% 4.5 mph NE7.2 kmh NE 9.8 mph15.8 kmh 29.58 in1001.7 mb 0.00 in0.0 mm 0.00 in0.0 mm 0.00 in0.0 mm
02:22 AM 85.8°F29.9°C 69.3°F20.7°C 58% 5.4 mph ENE8.7 kmh ENE 9.8 mph15.8 kmh 29.58 in1001.7 mb 0.00 in0.0 mm 0.00 in0.0 mm 0.00 in0.0 mm
02:20 AM 85.8°F29.9°C 69.3°F20.7°C 58% 3.8 mph NE6.1 kmh NE 9.2 mph14.8 kmh 29.58 in1001.7 mb 0.00 in0.0 mm 0.00 in0.0 mm 0.00 in0.0 mm
02:19 AM 85.8°F29.9°C 69.3°F20.7°C 58% 4.5 mph NE7.2 kmh NE 9.2 mph14.8 kmh 29.58 in1001.7 mb 0.00 in0.0 mm 0.00 in0.0 mm 0.00 in0.0 mm
02:18 AM 85.8°F29.9°C 69.3°F20.7°C 58% 5.4 mph 8.7 kmh 11.4 mph18.3 kmh 29.58 in1001.7 mb 0.00 in0.0 mm 0.00 in0.0 mm 0.00 in0.0 mm
02:17 AM 85.8°F29.9°C 69.3°F20.7°C 58% 2.2 mph NNE3.5 kmh NNE 6.9 mph11.1 kmh 29.58 in1001.7 mb 0.00 in0.0 mm 0.00 in0.0 mm 0.00 in0.0 mm
02:16 AM 85.8°F29.9°C 69.3°F20.7°C 58% 2.2 mph SW3.5 kmh SW 8.3 mph13.4 kmh 29.58 in1001.7 mb 0.00 in0.0 mm 0.00 in0.0 mm 0.00 in0.0 mm
02:15 AM 86.0°F30.0°C 69.4°F20.8°C 58% 3.8 mph NW6.1 kmh NW 8.3 mph13.4 kmh 29.58 in1001.7 mb 0.00 in0.0 mm 0.00 in0.0 mm 0.00 in0.0 mm
02:13 AM 86.0°F30.0°C 69.4°F20.8°C 58% 3.8 mph SE6.1 kmh SE 8.3 mph13.4 kmh 29.59 in1002.0 mb 0.00 in0.0 mm 0.00 in0.0 mm 0.00 in0.0 mm
02:12 AM 86.0°F30.0°C 69.4°F20.8°C 58% 3.1 mph NE5.0 kmh NE 8.3 mph13.4 kmh 29.58 in1001.7 mb 0.00 in0.0 mm 0.00 in0.0 mm 0.00 in0.0 mm
02:11 AM 86.0°F30.0°C 69.4°F20.8°C 58% 3.8 mph NE6.1 kmh NE 8.3 mph13.4 kmh 29.59 in1002.0 mb 0.00 in0.0 mm 0.00 in0.0 mm 0.00 in0.0 mm
02:10 AM 86.0°F30.0°C 69.4°F20.8°C 58% 2.2 mph WNW3.5 kmh WNW 6.9 mph11.1 kmh 29.59 in1002.0 mb 0.00 in0.0 mm 0.00 in0.0 mm 0.00 in0.0 mm
02:09 AM 86.0°F30.0°C 69.4°F20.8°C 58% 3.8 mph NE6.1 kmh NE 8.3 mph13.4 kmh 29.59 in1002.0 mb 0.00 in0.0 mm 0.00 in0.0 mm 0.00 in0.0 mm
02:08 AM 86.0°F30.0°C 69.4°F20.8°C 58% 3.8 mph 6.1 kmh 9.2 mph14.8 kmh 29.59 in1002.0 mb 0.00 in0.0 mm 0.00 in0.0 mm 0.00 in0.0 mm
02:06 AM 86.0°F30.0°C 70.0°F21.1°C 59% 4.5 mph E7.2 kmh E 9.2 mph14.8 kmh 29.58 in1001.7 mb 0.00 in0.0 mm 0.00 in0.0 mm 0.00 in0.0 mm
02:05 AM 86.0°F30.0°C 70.0°F21.1°C 59% 3.1 mph NW5.0 kmh NW 9.2 mph14.8 kmh 29.58 in1001.7 mb 0.00 in0.0 mm 0.00 in0.0 mm 0.00 in0.0 mm
02:04 AM 86.2°F30.1°C 69.6°F20.9°C 58% 3.8 mph NW6.1 kmh NW 9.2 mph14.8 kmh 29.59 in1002.0 mb 0.00 in0.0 mm 0.00 in0.0 mm 0.00 in0.0 mm
02:03 AM 86.0°F30.0°C 69.4°F20.8°C 58% 3.1 mph 5.0 kmh 6.9 mph11.1 kmh 29.59 in1002.0 mb 0.00 in0.0 mm 0.00 in0.0 mm 0.00 in0.0 mm
02:02 AM 86.0°F30.0°C 70.0°F21.1°C 59% 3.1 mph NE5.0 kmh NE 6.9 mph11.1 kmh 29.59 in1002.0 mb 0.00 in0.0 mm 0.00 in0.0 mm 0.00 in0.0 mm
02:00 AM 86.2°F30.1°C 70.2°F21.2°C 59% 4.5 mph 7.2 kmh 12.1 mph19.5 kmh 29.59 in1002.0 mb 0.00 in0.0 mm 0.00 in0.0 mm 0.00 in0.0 mm
01:59 AM 86.2°F30.1°C 70.2°F21.2°C 59% 3.8 mph 6.1 kmh 12.1 mph19.5 kmh 29.59 in1002.0 mb 0.00 in0.0 mm 0.00 in0.0 mm 0.00 in0.0 mm
01:58 AM 86.2°F30.1°C 70.2°F21.2°C 59% 2.2 mph NE3.5 kmh NE 6.0 mph9.7 kmh 29.59 in1002.0 mb 0.00 in0.0 mm 0.00 in0.0 mm 0.00 in0.0 mm
01:57 AM 86.2°F30.1°C 70.2°F21.2°C 59% 1.6 mph SE2.6 kmh SE 6.9 mph11.1 kmh 29.59 in1002.0 mb 0.00 in0.0 mm 0.00 in0.0 mm 0.00 in0.0 mm
01:56 AM 86.2°F30.1°C 70.2°F21.2°C 59% 3.1 mph NE5.0 kmh NE 7.6 mph12.2 kmh 29.59 in1002.0 mb 0.00 in0.0 mm 0.00 in0.0 mm 0.00 in0.0 mm
01:55 AM 86.2°F30.1°C 70.2°F21.2°C 59% 3.8 mph NE6.1 kmh NE 9.2 mph14.8 kmh 29.59 in1002.0 mb 0.00 in0.0 mm 0.00 in0.0 mm 0.00 in0.0 mm
01:53 AM 86.2°F30.1°C 70.2°F21.2°C 59% 4.5 mph NE7.2 kmh NE 9.2 mph14.8 kmh 29.59 in1002.0 mb 0.00 in0.0 mm 0.00 in0.0 mm 0.00 in0.0 mm
01:52 AM 86.2°F30.1°C 70.2°F21.2°C 59% 3.1 mph E5.0 kmh E 5.4 mph8.7 kmh 29.59 in1002.0 mb 0.00 in0.0 mm 0.00 in0.0 mm 0.00 in0.0 mm
01:51 AM 86.4°F30.2°C 70.3°F21.3°C 59% 0.7 mph NW1.1 kmh NW 10.7 mph17.2 kmh 29.59 in1002.0 mb 0.00 in0.0 mm 0.00 in0.0 mm 0.00 in0.0 mm
01:50 AM 86.4°F30.2°C 70.3°F21.3°C 59% 5.4 mph SE8.7 kmh SE 10.7 mph17.2 kmh 29.59 in1002.0 mb 0.00 in0.0 mm 0.00 in0.0 mm 0.00 in0.0 mm
01:49 AM 86.4°F30.2°C 70.3°F21.3°C 59% 3.8 mph NE6.1 kmh NE 9.2 mph14.8 kmh 29.59 in1002.0 mb 0.00 in0.0 mm 0.00 in0.0 mm 0.00 in0.0 mm
01:48 AM 86.4°F30.2°C 70.3°F21.3°C 59% 3.1 mph 5.0 kmh 6.9 mph11.1 kmh 29.59 in1002.0 mb 0.00 in0.0 mm 0.00 in0.0 mm 0.00 in0.0 mm
01:46 AM 86.4°F30.2°C 70.3°F21.3°C 59% 3.1 mph 5.0 kmh 14.5 mph23.3 kmh 29.59 in1002.0 mb 0.00 in0.0 mm 0.00 in0.0 mm 0.00 in0.0 mm
01:45 AM 86.4°F30.2°C 70.3°F21.3°C 59% 4.5 mph E7.2 kmh E 9.2 mph14.8 kmh 29.59 in1002.0 mb 0.00 in0.0 mm 0.00 in0.0 mm 0.00 in0.0 mm
01:44 AM 86.5°F30.3°C 70.5°F21.4°C 59% 3.8 mph E6.1 kmh E 9.8 mph15.8 kmh 29.60 in1002.4 mb 0.00 in0.0 mm 0.00 in0.0 mm 0.00 in0.0 mm
01:43 AM 86.4°F30.2°C 70.3°F21.3°C 59% 5.4 mph 8.7 kmh 9.2 mph14.8 kmh 29.60 in1002.4 mb 0.00 in0.0 mm 0.00 in0.0 mm 0.00 in0.0 mm
01:42 AM 86.4°F30.2°C 70.3°F21.3°C 59% 4.5 mph 7.2 kmh 8.3 mph13.4 kmh 29.60 in1002.4 mb 0.00 in0.0 mm 0.00 in0.0 mm 0.00 in0.0 mm
01:41 AM 86.4°F30.2°C 70.3°F21.3°C 59% 5.4 mph NW8.7 kmh NW 10.7 mph17.2 kmh 29.60 in1002.4 mb 0.00 in0.0 mm 0.00 in0.0 mm 0.00 in0.0 mm
01:39 AM 86.5°F30.3°C 70.5°F21.4°C 59% 5.4 mph 8.7 kmh 10.7 mph17.2 kmh 29.60 in1002.4 mb 0.00 in0.0 mm 0.00 in0.0 mm 0.00 in0.0 mm
01:38 AM 86.5°F30.3°C 70.5°F21.4°C 59% 3.1 mph 5.0 kmh 7.6 mph12.2 kmh 29.60 in1002.4 mb 0.00 in0.0 mm 0.00 in0.0 mm 0.00 in0.0 mm
01:37 AM 86.5°F30.3°C 70.5°F21.4°C 59% 3.8 mph 6.1 kmh 7.6 mph12.2 kmh 29.60 in1002.4 mb 0.00 in0.0 mm 0.00 in0.0 mm 0.00 in0.0 mm
01:36 AM 86.5°F30.3°C 70.5°F21.4°C 59% 3.1 mph NE5.0 kmh NE 8.3 mph13.4 kmh 29.60 in1002.4 mb 0.00 in0.0 mm 0.00 in0.0 mm 0.00 in0.0 mm
01:35 AM 86.5°F30.3°C 70.5°F21.4°C 59% 3.1 mph NE5.0 kmh NE 11.4 mph18.3 kmh 29.60 in1002.4 mb 0.00 in0.0 mm 0.00 in0.0 mm 0.00 in0.0 mm
01:33 AM 86.5°F30.3°C 70.5°F21.4°C 59% 6.0 mph SE9.7 kmh SE 11.4 mph18.3 kmh 29.60 in1002.4 mb 0.00 in0.0 mm 0.00 in0.0 mm 0.00 in0.0 mm
01:32 AM 86.5°F30.3°C 70.5°F21.4°C 59% 2.2 mph 3.5 kmh 8.3 mph13.4 kmh 29.60 in1002.4 mb 0.00 in0.0 mm 0.00 in0.0 mm 0.00 in0.0 mm
01:31 AM 86.5°F30.3°C 70.0°F21.1°C 58% 6.0 mph 9.7 kmh 12.1 mph19.5 kmh 29.61 in1002.7 mb 0.00 in0.0 mm 0.00 in0.0 mm 0.00 in0.0 mm
01:30 AM 86.5°F30.3°C 70.0°F21.1°C 58% 6.9 mph NE11.1 kmh NE 12.1 mph19.5 kmh 29.60 in1002.4 mb 0.00 in0.0 mm 0.00 in0.0 mm 0.00 in0.0 mm
01:29 AM 86.5°F30.3°C 70.0°F21.1°C 58% 5.4 mph 8.7 kmh 9.2 mph14.8 kmh 29.61 in1002.7 mb 0.00 in0.0 mm 0.00 in0.0 mm 0.00 in0.0 mm
01:28 AM 86.7°F30.4°C 70.2°F21.2°C 58% 4.5 mph E7.2 kmh E 13.0 mph20.9 kmh 29.60 in1002.4 mb 0.00 in0.0 mm 0.00 in0.0 mm 0.00 in0.0 mm
01:26 AM 86.7°F30.4°C 70.2°F21.2°C 58% 4.5 mph E7.2 kmh E 14.5 mph23.3 kmh 29.60 in1002.4 mb 0.00 in0.0 mm 0.00 in0.0 mm 0.00 in0.0 mm
01:25 AM 86.7°F30.4°C 70.2°F21.2°C 58% 4.5 mph NE7.2 kmh NE 12.1 mph19.5 kmh 29.60 in1002.4 mb 0.00 in0.0 mm 0.00 in0.0 mm 0.00 in0.0 mm
01:24 AM 86.7°F30.4°C 70.2°F21.2°C 58% 4.5 mph NE7.2 kmh NE 15.9 mph25.6 kmh 29.60 in1002.4 mb 0.00 in0.0 mm 0.00 in0.0 mm 0.00 in0.0 mm
01:23 AM 86.7°F30.4°C 70.2°F21.2°C 58% 7.6 mph E12.2 kmh E 14.5 mph23.3 kmh 29.61 in1002.7 mb 0.00 in0.0 mm 0.00 in0.0 mm 0.00 in0.0 mm
01:22 AM 88.2°F31.2°C 71.6°F22.0°C 58% 8.3 mph NE13.4 kmh NE 14.5 mph23.3 kmh 29.61 in1002.7 mb 0.00 in0.0 mm 0.00 in0.0 mm 0.00 in0.0 mm
01:21 AM 86.7°F30.4°C 70.2°F21.2°C 58% 6.0 mph NE9.7 kmh NE 14.5 mph23.3 kmh 29.61 in1002.7 mb 0.00 in0.0 mm 0.00 in0.0 mm 0.00 in0.0 mm
01:19 AM 86.7°F30.4°C 70.2°F21.2°C 58% 6.9 mph NE11.1 kmh NE 14.5 mph23.3 kmh 29.61 in1002.7 mb 0.00 in0.0 mm 0.00 in0.0 mm 0.00 in0.0 mm
01:18 AM 86.7°F30.4°C 70.2°F21.2°C 58% 7.6 mph E12.2 kmh E 17.4 mph28.0 kmh 29.61 in1002.7 mb 0.00 in0.0 mm 0.00 in0.0 mm 0.00 in0.0 mm
01:17 AM 86.7°F30.4°C 70.2°F21.2°C 58% 3.1 mph NW5.0 kmh NW 13.0 mph20.9 kmh 29.61 in1002.7 mb 0.00 in0.0 mm 0.00 in0.0 mm 0.00 in0.0 mm
01:16 AM 86.7°F30.4°C 70.2°F21.2°C 58% 6.9 mph NE11.1 kmh NE 13.0 mph20.9 kmh 29.61 in1002.7 mb 0.00 in0.0 mm 0.00 in0.0 mm 0.00 in0.0 mm
01:15 AM 86.9°F30.5°C 70.3°F21.3°C 58% 6.9 mph NE11.1 kmh NE 15.2 mph24.5 kmh 29.61 in1002.7 mb 0.00 in0.0 mm 0.00 in0.0 mm 0.00 in0.0 mm
01:14 AM 86.9°F30.5°C 70.3°F21.3°C 58% 6.9 mph NE11.1 kmh NE 15.2 mph24.5 kmh 29.61 in1002.7 mb 0.00 in0.0 mm 0.00 in0.0 mm 0.00 in0.0 mm
01:12 AM 86.9°F30.5°C 70.3°F21.3°C 58% 4.5 mph E7.2 kmh E 9.2 mph14.8 kmh 29.61 in1002.7 mb 0.00 in0.0 mm 0.00 in0.0 mm 0.00 in0.0 mm
01:11 AM 86.9°F30.5°C 70.3°F21.3°C 58% 5.4 mph 8.7 kmh 9.8 mph15.8 kmh 29.62 in1003.0 mb 0.00 in0.0 mm 0.00 in0.0 mm 0.00 in0.0 mm
01:10 AM 86.9°F30.5°C 70.3°F21.3°C 58% 6.0 mph ENE9.7 kmh ENE 17.4 mph28.0 kmh 29.62 in1003.0 mb 0.00 in0.0 mm 0.00 in0.0 mm 0.00 in0.0 mm
01:09 AM 86.9°F30.5°C 70.3°F21.3°C 58% 8.3 mph NE13.4 kmh NE 20.6 mph33.2 kmh 29.62 in1003.0 mb 0.00 in0.0 mm 0.00 in0.0 mm 0.00 in0.0 mm
01:08 AM 86.9°F30.5°C 70.3°F21.3°C 58% 7.6 mph NW12.2 kmh NW 12.1 mph19.5 kmh 29.62 in1003.0 mb 0.00 in0.0 mm 0.00 in0.0 mm 0.00 in0.0 mm
01:06 AM 86.9°F30.5°C 70.3°F21.3°C 58% 6.9 mph NW11.1 kmh NW 12.1 mph19.5 kmh 29.62 in1003.0 mb 0.00 in0.0 mm 0.00 in0.0 mm 0.00 in0.0 mm
01:05 AM 86.9°F30.5°C 70.3°F21.3°C 58% 4.5 mph NE7.2 kmh NE 13.6 mph21.9 kmh 29.62 in1003.0 mb 0.00 in0.0 mm 0.00 in0.0 mm 0.00 in0.0 mm
01:04 AM 86.9°F30.5°C 70.3°F21.3°C 58% 5.4 mph NE8.7 kmh NE 13.6 mph21.9 kmh 29.62 in1003.0 mb 0.00 in0.0 mm 0.00 in0.0 mm 0.00 in0.0 mm
01:03 AM 86.9°F30.5°C 70.3°F21.3°C 58% 5.4 mph NE8.7 kmh NE 11.4 mph18.3 kmh 29.62 in1003.0 mb 0.00 in0.0 mm 0.00 in0.0 mm 0.00 in0.0 mm
01:02 AM 86.9°F30.5°C 70.3°F21.3°C 58% 4.5 mph E7.2 kmh E 11.4 mph18.3 kmh 29.62 in1003.0 mb 0.00 in0.0 mm 0.00 in0.0 mm 0.00 in0.0 mm
01:01 AM 86.9°F30.5°C 70.3°F21.3°C 58% 6.9 mph NE11.1 kmh NE 14.5 mph23.3 kmh 29.62 in1003.0 mb 0.00 in0.0 mm 0.00 in0.0 mm 0.00 in0.0 mm
12:59 AM 86.9°F30.5°C 70.3°F21.3°C 58% 5.4 mph NE8.7 kmh NE 12.1 mph19.5 kmh 29.62 in1003.0 mb 0.00 in0.0 mm 0.00 in0.0 mm 0.00 in0.0 mm
12:58 AM 86.9°F30.5°C 70.3°F21.3°C 58% 5.4 mph SW8.7 kmh SW 13.6 mph21.9 kmh 29.62 in1003.0 mb 0.00 in0.0 mm 0.00 in0.0 mm 0.00 in0.0 mm
12:57 AM 86.9°F30.5°C 70.3°F21.3°C 58% 6.9 mph 11.1 kmh 15.2 mph24.5 kmh 29.62 in1003.0 mb 0.00 in0.0 mm 0.00 in0.0 mm 0.00 in0.0 mm
12:56 AM 86.9°F30.5°C 70.3°F21.3°C 58% 4.5 mph NNE7.2 kmh NNE 15.2 mph24.5 kmh 29.62 in1003.0 mb 0.00 in0.0 mm 0.00 in0.0 mm 0.00 in0.0 mm
12:55 AM 86.9°F30.5°C 70.3°F21.3°C 58% 6.9 mph E11.1 kmh E 13.6 mph21.9 kmh 29.62 in1003.0 mb 0.00 in0.0 mm 0.00 in0.0 mm 0.00 in0.0 mm
12:54 AM 86.9°F30.5°C 70.3°F21.3°C 58% 4.5 mph ENE7.2 kmh ENE 15.2 mph24.5 kmh 29.62 in1003.0 mb 0.00 in0.0 mm 0.00 in0.0 mm 0.00 in0.0 mm
12:52 AM 86.9°F30.5°C 70.3°F21.3°C 58% 5.4 mph NE8.7 kmh NE 15.2 mph24.5 kmh 29.62 in1003.0 mb 0.00 in0.0 mm 0.00 in0.0 mm 0.00 in0.0 mm
12:51 AM 86.9°F30.5°C 70.3°F21.3°C 58% 6.9 mph NE11.1 kmh NE 15.2 mph24.5 kmh 29.62 in1003.0 mb 0.00 in0.0 mm 0.00 in0.0 mm 0.00 in0.0 mm
12:50 AM 86.9°F30.5°C 70.3°F21.3°C 58% 5.4 mph SE8.7 kmh SE 12.1 mph19.5 kmh 29.63 in1003.4 mb 0.00 in0.0 mm 0.00 in0.0 mm 0.00 in0.0 mm
12:49 AM 86.9°F30.5°C 70.3°F21.3°C 58% 6.0 mph E9.7 kmh E 12.1 mph19.5 kmh 29.62 in1003.0 mb 0.00 in0.0 mm 0.00 in0.0 mm 0.00 in0.0 mm
12:48 AM 86.9°F30.5°C 70.3°F21.3°C 58% 3.8 mph NE6.1 kmh NE 10.7 mph17.2 kmh 29.62 in1003.0 mb 0.00 in0.0 mm 0.00 in0.0 mm 0.00 in0.0 mm
12:46 AM 87.1°F30.6°C 70.5°F21.4°C 58% 7.6 mph NE12.2 kmh NE 13.6 mph21.9 kmh 29.62 in1003.0 mb 0.00 in0.0 mm 0.00 in0.0 mm 0.00 in0.0 mm
12:45 AM 87.1°F30.6°C 70.5°F21.4°C 58% 6.0 mph NW9.7 kmh NW 16.8 mph27.0 kmh 29.63 in1003.4 mb 0.00 in0.0 mm 0.00 in0.0 mm 0.00 in0.0 mm
12:44 AM 87.1°F30.6°C 70.5°F21.4°C 58% 9.2 mph E14.8 kmh E 16.8 mph27.0 kmh 29.63 in1003.4 mb 0.00 in0.0 mm 0.00 in0.0 mm 0.00 in0.0 mm
12:43 AM 87.1°F30.6°C 70.5°F21.4°C 58% 5.4 mph 8.7 kmh 13.0 mph20.9 kmh 29.63 in1003.4 mb 0.00 in0.0 mm 0.00 in0.0 mm 0.00 in0.0 mm
12:42 AM 87.1°F30.6°C 71.1°F21.7°C 59% 6.9 mph 11.1 kmh 13.6 mph21.9 kmh 29.63 in1003.4 mb 0.00 in0.0 mm 0.00 in0.0 mm 0.00 in0.0 mm
12:41 AM 87.1°F30.6°C 71.1°F21.7°C 59% 6.0 mph NE9.7 kmh NE 13.6 mph21.9 kmh 29.63 in1003.4 mb 0.00 in0.0 mm 0.00 in0.0 mm 0.00 in0.0 mm
12:39 AM 87.1°F30.6°C 70.5°F21.4°C 58% 7.6 mph 12.2 kmh 13.6 mph21.9 kmh 29.63 in1003.4 mb 0.00 in0.0 mm 0.00 in0.0 mm 0.00 in0.0 mm
12:38 AM 87.1°F30.6°C 70.5°F21.4°C 58% 7.6 mph NE12.2 kmh NE 13.6 mph21.9 kmh 29.63 in1003.4 mb 0.00 in0.0 mm 0.00 in0.0 mm 0.00 in0.0 mm
12:37 AM 87.1°F30.6°C 70.5°F21.4°C 58% 6.0 mph E9.7 kmh E 13.6 mph21.9 kmh 29.63 in1003.4 mb 0.00 in0.0 mm 0.00 in0.0 mm 0.00 in0.0 mm
12:36 AM 87.1°F30.6°C 70.5°F21.4°C 58% 7.6 mph 12.2 kmh 13.6 mph21.9 kmh 29.63 in1003.4 mb 0.00 in0.0 mm 0.00 in0.0 mm 0.00 in0.0 mm
12:35 AM 87.1°F30.6°C 70.5°F21.4°C 58% 6.9 mph NE11.1 kmh NE 14.5 mph23.3 kmh 29.63 in1003.4 mb 0.00 in0.0 mm 0.00 in0.0 mm 0.00 in0.0 mm
12:34 AM 87.1°F30.6°C 70.5°F21.4°C 58% 7.6 mph NE12.2 kmh NE 14.5 mph23.3 kmh 29.63 in1003.4 mb 0.00 in0.0 mm 0.00 in0.0 mm 0.00 in0.0 mm
12:32 AM 87.1°F30.6°C 70.5°F21.4°C 58% 6.9 mph E11.1 kmh E 15.2 mph24.5 kmh 29.63 in1003.4 mb 0.00 in0.0 mm 0.00 in0.0 mm 0.00 in0.0 mm
12:31 AM 87.1°F30.6°C 70.5°F21.4°C 58% 6.9 mph 11.1 kmh 13.6 mph21.9 kmh 29.63 in1003.4 mb 0.00 in0.0 mm 0.00 in0.0 mm 0.00 in0.0 mm
12:30 AM 87.3°F30.7°C 71.2°F21.8°C 59% 5.4 mph NE8.7 kmh NE 10.7 mph17.2 kmh 29.63 in1003.4 mb 0.00 in0.0 mm 0.00 in0.0 mm 0.00 in0.0 mm
12:29 AM 87.3°F30.7°C 70.7°F21.5°C 58% 6.0 mph 9.7 kmh 10.7 mph17.2 kmh 29.63 in1003.4 mb 0.00 in0.0 mm 0.00 in0.0 mm 0.00 in0.0 mm
12:28 AM 87.3°F30.7°C 70.7°F21.5°C 58% 7.6 mph 12.2 kmh 14.5 mph23.3 kmh 29.64 in1003.7 mb 0.00 in0.0 mm 0.00 in0.0 mm 0.00 in0.0 mm
12:27 AM 87.3°F30.7°C 70.7°F21.5°C 58% 8.3 mph NE13.4 kmh NE 11.4 mph18.3 kmh 29.63 in1003.4 mb 0.00 in0.0 mm 0.00 in0.0 mm 0.00 in0.0 mm
12:25 AM 87.3°F30.7°C 70.7°F21.5°C 58% 4.5 mph 7.2 kmh 10.7 mph17.2 kmh 29.64 in1003.7 mb 0.00 in0.0 mm 0.00 in0.0 mm 0.00 in0.0 mm
12:24 AM 87.3°F30.7°C 70.7°F21.5°C 58% 3.8 mph SE6.1 kmh SE 10.7 mph17.2 kmh 29.63 in1003.4 mb 0.00 in0.0 mm 0.00 in0.0 mm 0.00 in0.0 mm
12:23 AM 87.3°F30.7°C 70.7°F21.5°C 58% 9.2 mph NE14.8 kmh NE 14.5 mph23.3 kmh 29.64 in1003.7 mb 0.00 in0.0 mm 0.00 in0.0 mm 0.00 in0.0 mm
12:22 AM 87.3°F30.7°C 70.7°F21.5°C 58% 7.6 mph 12.2 kmh 15.2 mph24.5 kmh 29.64 in1003.7 mb 0.00 in0.0 mm 0.00 in0.0 mm 0.00 in0.0 mm
12:21 AM 87.3°F30.7°C 70.7°F21.5°C 58% 7.6 mph NE12.2 kmh NE 15.2 mph24.5 kmh 29.64 in1003.7 mb 0.00 in0.0 mm 0.00 in0.0 mm 0.00 in0.0 mm
12:19 AM 87.3°F30.7°C 70.7°F21.5°C 58% 6.0 mph 9.7 kmh 14.5 mph23.3 kmh 29.64 in1003.7 mb 0.00 in0.0 mm 0.00 in0.0 mm 0.00 in0.0 mm
12:18 AM 87.4°F30.8°C 70.9°F21.6°C 58% 6.0 mph SE9.7 kmh SE 14.5 mph23.3 kmh 29.64 in1003.7 mb 0.00 in0.0 mm 0.00 in0.0 mm 0.00 in0.0 mm
12:17 AM 87.4°F30.8°C 70.9°F21.6°C 58% 6.0 mph 9.7 kmh 10.7 mph17.2 kmh 29.64 in1003.7 mb 0.00 in0.0 mm 0.00 in0.0 mm 0.00 in0.0 mm
12:16 AM 87.4°F30.8°C 70.9°F21.6°C 58% 5.4 mph NE8.7 kmh NE 15.2 mph24.5 kmh 29.64 in1003.7 mb 0.00 in0.0 mm 0.00 in0.0 mm 0.00 in0.0 mm
12:15 AM 87.4°F30.8°C 70.9°F21.6°C 58% 6.9 mph NE11.1 kmh NE 12.1 mph19.5 kmh 29.64 in1003.7 mb 0.00 in0.0 mm 0.00 in0.0 mm 0.00 in0.0 mm
12:14 AM 87.4°F30.8°C 70.9°F21.6°C 58% 7.6 mph NE12.2 kmh NE 12.1 mph19.5 kmh 29.64 in1003.7 mb 0.00 in0.0 mm 0.00 in0.0 mm 0.00 in0.0 mm
12:12 AM 87.4°F30.8°C 70.9°F21.6°C 58% 3.8 mph E6.1 kmh E 9.2 mph14.8 kmh 29.64 in1003.7 mb 0.00 in0.0 mm 0.00 in0.0 mm 0.00 in0.0 mm
12:11 AM 87.4°F30.8°C 70.9°F21.6°C 58% 4.5 mph E7.2 kmh E 13.6 mph21.9 kmh 29.64 in1003.7 mb 0.00 in0.0 mm 0.00 in0.0 mm 0.00 in0.0 mm
12:10 AM 87.4°F30.8°C 70.9°F21.6°C 58% 4.5 mph 7.2 kmh 13.0 mph20.9 kmh 29.65 in1004.1 mb 0.00 in0.0 mm 0.00 in0.0 mm 0.00 in0.0 mm
12:09 AM 87.4°F30.8°C 70.9°F21.6°C 58% 6.0 mph NE9.7 kmh NE 13.0 mph20.9 kmh 29.65 in1004.1 mb 0.00 in0.0 mm 0.00 in0.0 mm 0.00 in0.0 mm
12:08 AM 87.4°F30.8°C 70.9°F21.6°C 58% 5.4 mph NE8.7 kmh NE 15.9 mph25.6 kmh 29.64 in1003.7 mb 0.00 in0.0 mm 0.00 in0.0 mm 0.00 in0.0 mm
12:07 AM 87.4°F30.8°C 70.9°F21.6°C 58% 8.3 mph WNW13.4 kmh WNW 15.9 mph25.6 kmh 29.65 in1004.1 mb 0.00 in0.0 mm 0.00 in0.0 mm 0.00 in0.0 mm
12:05 AM 87.4°F30.8°C 70.9°F21.6°C 58% 7.6 mph NE12.2 kmh NE 15.2 mph24.5 kmh 29.65 in1004.1 mb 0.00 in0.0 mm 0.00 in0.0 mm 0.00 in0.0 mm
12:04 AM 87.4°F30.8°C 70.9°F21.6°C 58% 6.9 mph SE11.1 kmh SE 13.0 mph20.9 kmh 29.65 in1004.1 mb 0.00 in0.0 mm 0.00 in0.0 mm 0.00 in0.0 mm
12:03 AM 87.4°F30.8°C 70.9°F21.6°C 58% 5.4 mph NE8.7 kmh NE 11.4 mph18.3 kmh 29.64 in1003.7 mb 0.00 in0.0 mm 0.00 in0.0 mm 0.00 in0.0 mm
12:02 AM 87.4°F30.8°C 70.9°F21.6°C 58% 3.8 mph SE6.1 kmh SE 12.1 mph19.5 kmh 29.65 in1004.1 mb 0.00 in0.0 mm 0.00 in0.0 mm 0.00 in0.0 mm
12:01 AM 87.4°F30.8°C 70.9°F21.6°C 58% 6.0 mph NE9.7 kmh NE 15.9 mph25.6 kmh 29.64 in1003.7 mb 0.00 in0.0 mm 0.00 in0.0 mm 0.00 in0.0 mm